<?xml version="1.0" encoding="UTF-8" standalone="no" ?>
<gpx xmlns="http://www.topografix.com/GPX/1/1" xmlns:xsi="http://www.w3.org/2001/XMLSchema-instance" xsi:schemaLocation="http://www.topografix.com/GPX/1/1 http://www.topografix.com/GPX/1/1/gpx.xsd" version="1.1" creator="VisuGPX - https://www.visugpx.com">
  <metadata>
    <name>15228031-Chars Santeuil</name>
  </metadata>
  <trk>
    <name><![CDATA[15228031-Chars Santeuil]]></name>
    <trkseg>
      <trkpt lat="49.16206" lon="1.93658">
        <ele>65</ele>
        <time>2022-07-28T09:04:50Z</time>
      </trkpt>
      <trkpt lat="49.16198" lon="1.93654">
        <ele>66</ele>
        <time>2022-07-28T09:05:01Z</time>
      </trkpt>
      <trkpt lat="49.16156" lon="1.93657">
        <ele>66</ele>
        <time>2022-07-28T09:05:57Z</time>
      </trkpt>
      <trkpt lat="49.16146" lon="1.93653">
        <ele>66</ele>
        <time>2022-07-28T09:06:11Z</time>
      </trkpt>
      <trkpt lat="49.16132" lon="1.93639">
        <ele>66</ele>
        <time>2022-07-28T09:06:33Z</time>
      </trkpt>
      <trkpt lat="49.16121" lon="1.93634">
        <ele>66</ele>
        <time>2022-07-28T09:06:49Z</time>
      </trkpt>
      <trkpt lat="49.16113" lon="1.93627">
        <ele>67</ele>
        <time>2022-07-28T09:07:01Z</time>
      </trkpt>
      <trkpt lat="49.16099" lon="1.9362">
        <ele>67</ele>
        <time>2022-07-28T09:07:21Z</time>
      </trkpt>
      <trkpt lat="49.16079" lon="1.93614">
        <ele>66</ele>
        <time>2022-07-28T09:07:48Z</time>
      </trkpt>
      <trkpt lat="49.16081" lon="1.93618">
        <ele>66</ele>
        <time>2022-07-28T09:07:52Z</time>
      </trkpt>
      <trkpt lat="49.1608" lon="1.93625">
        <ele>66</ele>
        <time>2022-07-28T09:07:59Z</time>
      </trkpt>
      <trkpt lat="49.16076" lon="1.9363">
        <ele>66</ele>
        <time>2022-07-28T09:08:05Z</time>
      </trkpt>
      <trkpt lat="49.16066" lon="1.9363">
        <ele>65</ele>
        <time>2022-07-28T09:08:19Z</time>
      </trkpt>
      <trkpt lat="49.16045" lon="1.93641">
        <ele>65</ele>
        <time>2022-07-28T09:08:48Z</time>
      </trkpt>
      <trkpt lat="49.16028" lon="1.93641">
        <ele>65</ele>
        <time>2022-07-28T09:09:11Z</time>
      </trkpt>
      <trkpt lat="49.16025" lon="1.9366">
        <ele>64</ele>
        <time>2022-07-28T09:09:28Z</time>
      </trkpt>
      <trkpt lat="49.16025" lon="1.9369">
        <ele>64</ele>
        <time>2022-07-28T09:09:54Z</time>
      </trkpt>
      <trkpt lat="49.1602" lon="1.93705">
        <ele>64</ele>
        <time>2022-07-28T09:10:09Z</time>
      </trkpt>
      <trkpt lat="49.16019" lon="1.93717">
        <ele>64</ele>
        <time>2022-07-28T09:10:20Z</time>
      </trkpt>
      <trkpt lat="49.1603" lon="1.93777">
        <ele>65</ele>
        <time>2022-07-28T09:11:14Z</time>
      </trkpt>
      <trkpt lat="49.16045" lon="1.93797">
        <ele>65</ele>
        <time>2022-07-28T09:11:41Z</time>
      </trkpt>
      <trkpt lat="49.16062" lon="1.93792">
        <ele>65</ele>
        <time>2022-07-28T09:12:04Z</time>
      </trkpt>
      <trkpt lat="49.16095" lon="1.93788">
        <ele>64</ele>
        <time>2022-07-28T09:12:48Z</time>
      </trkpt>
      <trkpt lat="49.16102" lon="1.93791">
        <ele>64</ele>
        <time>2022-07-28T09:12:58Z</time>
      </trkpt>
      <trkpt lat="49.16118" lon="1.93788">
        <ele>64</ele>
        <time>2022-07-28T09:13:19Z</time>
      </trkpt>
      <trkpt lat="49.16162" lon="1.93791">
        <ele>63</ele>
        <time>2022-07-28T09:14:18Z</time>
      </trkpt>
      <trkpt lat="49.16187" lon="1.93789">
        <ele>63</ele>
        <time>2022-07-28T09:14:51Z</time>
      </trkpt>
      <trkpt lat="49.16203" lon="1.93879">
        <ele>67</ele>
        <time>2022-07-28T09:16:13Z</time>
      </trkpt>
      <trkpt lat="49.16207" lon="1.93887">
        <ele>68</ele>
        <time>2022-07-28T09:16:21Z</time>
      </trkpt>
      <trkpt lat="49.16215" lon="1.93889">
        <ele>68</ele>
        <time>2022-07-28T09:16:32Z</time>
      </trkpt>
      <trkpt lat="49.16223" lon="1.93887">
        <ele>69</ele>
        <time>2022-07-28T09:16:43Z</time>
      </trkpt>
      <trkpt lat="49.16228" lon="1.93889">
        <ele>69</ele>
        <time>2022-07-28T09:16:50Z</time>
      </trkpt>
      <trkpt lat="49.16238" lon="1.93913">
        <ele>71</ele>
        <time>2022-07-28T09:17:15Z</time>
      </trkpt>
      <trkpt lat="49.16255" lon="1.93937">
        <ele>75</ele>
        <time>2022-07-28T09:17:46Z</time>
      </trkpt>
      <trkpt lat="49.16255" lon="1.93941">
        <ele>75</ele>
        <time>2022-07-28T09:17:49Z</time>
      </trkpt>
      <trkpt lat="49.1626" lon="1.93942">
        <ele>76</ele>
        <time>2022-07-28T09:17:56Z</time>
      </trkpt>
      <trkpt lat="49.16287" lon="1.93922">
        <ele>76</ele>
        <time>2022-07-28T09:18:36Z</time>
      </trkpt>
      <trkpt lat="49.1631" lon="1.93911">
        <ele>78</ele>
        <time>2022-07-28T09:19:08Z</time>
      </trkpt>
      <trkpt lat="49.16322" lon="1.93908">
        <ele>79</ele>
        <time>2022-07-28T09:19:24Z</time>
      </trkpt>
      <trkpt lat="49.16327" lon="1.9391">
        <ele>80</ele>
        <time>2022-07-28T09:19:31Z</time>
      </trkpt>
      <trkpt lat="49.16352" lon="1.93909">
        <ele>80</ele>
        <time>2022-07-28T09:20:05Z</time>
      </trkpt>
      <trkpt lat="49.16377" lon="1.93924">
        <ele>80</ele>
        <time>2022-07-28T09:20:40Z</time>
      </trkpt>
      <trkpt lat="49.1639" lon="1.9394">
        <ele>81</ele>
        <time>2022-07-28T09:21:03Z</time>
      </trkpt>
      <trkpt lat="49.16398" lon="1.93956">
        <ele>81</ele>
        <time>2022-07-28T09:21:20Z</time>
      </trkpt>
      <trkpt lat="49.16402" lon="1.93981">
        <ele>82</ele>
        <time>2022-07-28T09:21:43Z</time>
      </trkpt>
      <trkpt lat="49.16407" lon="1.9399">
        <ele>83</ele>
        <time>2022-07-28T09:21:53Z</time>
      </trkpt>
      <trkpt lat="49.1641" lon="1.9402">
        <ele>84</ele>
        <time>2022-07-28T09:22:19Z</time>
      </trkpt>
      <trkpt lat="49.16439" lon="1.94055">
        <ele>85</ele>
        <time>2022-07-28T09:23:09Z</time>
      </trkpt>
      <trkpt lat="49.16462" lon="1.94066">
        <ele>85</ele>
        <time>2022-07-28T09:23:41Z</time>
      </trkpt>
      <trkpt lat="49.16507" lon="1.94074">
        <ele>85</ele>
        <time>2022-07-28T09:24:41Z</time>
      </trkpt>
      <trkpt lat="49.1652" lon="1.94084">
        <ele>85</ele>
        <time>2022-07-28T09:25:01Z</time>
      </trkpt>
      <trkpt lat="49.16529" lon="1.94087">
        <ele>85</ele>
        <time>2022-07-28T09:25:13Z</time>
      </trkpt>
      <trkpt lat="49.16543" lon="1.94088">
        <ele>85</ele>
        <time>2022-07-28T09:25:32Z</time>
      </trkpt>
      <trkpt lat="49.16558" lon="1.9405">
        <ele>84</ele>
        <time>2022-07-28T09:26:11Z</time>
      </trkpt>
      <trkpt lat="49.16577" lon="1.94026">
        <ele>83</ele>
        <time>2022-07-28T09:26:43Z</time>
      </trkpt>
      <trkpt lat="49.16599" lon="1.93976">
        <ele>79</ele>
        <time>2022-07-28T09:27:36Z</time>
      </trkpt>
      <trkpt lat="49.16612" lon="1.93962">
        <ele>77</ele>
        <time>2022-07-28T09:27:57Z</time>
      </trkpt>
      <trkpt lat="49.1662" lon="1.93958">
        <ele>76</ele>
        <time>2022-07-28T09:28:08Z</time>
      </trkpt>
      <trkpt lat="49.16669" lon="1.93963">
        <ele>73</ele>
        <time>2022-07-28T09:29:14Z</time>
      </trkpt>
      <trkpt lat="49.16676" lon="1.93966">
        <ele>73</ele>
        <time>2022-07-28T09:29:24Z</time>
      </trkpt>
      <trkpt lat="49.16696" lon="1.93982">
        <ele>72</ele>
        <time>2022-07-28T09:29:54Z</time>
      </trkpt>
      <trkpt lat="49.16698" lon="1.9398">
        <ele>72</ele>
        <time>2022-07-28T09:29:57Z</time>
      </trkpt>
      <trkpt lat="49.16712" lon="1.94005">
        <ele>73</ele>
        <time>2022-07-28T09:30:26Z</time>
      </trkpt>
      <trkpt lat="49.16753" lon="1.94048">
        <ele>73</ele>
        <time>2022-07-28T09:31:32Z</time>
      </trkpt>
      <trkpt lat="49.16757" lon="1.94046">
        <ele>73</ele>
        <time>2022-07-28T09:31:38Z</time>
      </trkpt>
      <trkpt lat="49.16776" lon="1.94025">
        <ele>70</ele>
        <time>2022-07-28T09:32:09Z</time>
      </trkpt>
      <trkpt lat="49.16802" lon="1.9399">
        <ele>68</ele>
        <time>2022-07-28T09:32:55Z</time>
      </trkpt>
      <trkpt lat="49.16816" lon="1.93963">
        <ele>68</ele>
        <time>2022-07-28T09:33:25Z</time>
      </trkpt>
      <trkpt lat="49.16822" lon="1.93941">
        <ele>68</ele>
        <time>2022-07-28T09:33:46Z</time>
      </trkpt>
      <trkpt lat="49.16822" lon="1.93931">
        <ele>68</ele>
        <time>2022-07-28T09:33:55Z</time>
      </trkpt>
      <trkpt lat="49.16834" lon="1.93911">
        <ele>68</ele>
        <time>2022-07-28T09:34:18Z</time>
      </trkpt>
      <trkpt lat="49.16835" lon="1.939">
        <ele>68</ele>
        <time>2022-07-28T09:34:28Z</time>
      </trkpt>
      <trkpt lat="49.16832" lon="1.9389">
        <ele>68</ele>
        <time>2022-07-28T09:34:38Z</time>
      </trkpt>
      <trkpt lat="49.16835" lon="1.93882">
        <ele>68</ele>
        <time>2022-07-28T09:34:46Z</time>
      </trkpt>
      <trkpt lat="49.16837" lon="1.93855">
        <ele>67</ele>
        <time>2022-07-28T09:35:09Z</time>
      </trkpt>
      <trkpt lat="49.16845" lon="1.93835">
        <ele>67</ele>
        <time>2022-07-28T09:35:30Z</time>
      </trkpt>
      <trkpt lat="49.1685" lon="1.93835">
        <ele>68</ele>
        <time>2022-07-28T09:35:37Z</time>
      </trkpt>
      <trkpt lat="49.16852" lon="1.93829">
        <ele>68</ele>
        <time>2022-07-28T09:35:42Z</time>
      </trkpt>
      <trkpt lat="49.16849" lon="1.9384">
        <ele>68</ele>
        <time>2022-07-28T09:35:53Z</time>
      </trkpt>
      <trkpt lat="49.16858" lon="1.93837">
        <ele>68</ele>
        <time>2022-07-28T09:36:05Z</time>
      </trkpt>
      <trkpt lat="49.16875" lon="1.93859">
        <ele>68</ele>
        <time>2022-07-28T09:36:35Z</time>
      </trkpt>
      <trkpt lat="49.16882" lon="1.93862">
        <ele>68</ele>
        <time>2022-07-28T09:36:45Z</time>
      </trkpt>
      <trkpt lat="49.16886" lon="1.93857">
        <ele>69</ele>
        <time>2022-07-28T09:36:51Z</time>
      </trkpt>
      <trkpt lat="49.16887" lon="1.93847">
        <ele>69</ele>
        <time>2022-07-28T09:37:00Z</time>
      </trkpt>
      <trkpt lat="49.1685" lon="1.93769">
        <ele>68</ele>
        <time>2022-07-28T09:38:24Z</time>
      </trkpt>
      <trkpt lat="49.16848" lon="1.93749">
        <ele>68</ele>
        <time>2022-07-28T09:38:42Z</time>
      </trkpt>
      <trkpt lat="49.16828" lon="1.93683">
        <ele>72</ele>
        <time>2022-07-28T09:39:46Z</time>
      </trkpt>
      <trkpt lat="49.16811" lon="1.93661">
        <ele>73</ele>
        <time>2022-07-28T09:40:15Z</time>
      </trkpt>
      <trkpt lat="49.168" lon="1.93642">
        <ele>74</ele>
        <time>2022-07-28T09:40:37Z</time>
      </trkpt>
      <trkpt lat="49.16793" lon="1.93623">
        <ele>75</ele>
        <time>2022-07-28T09:40:56Z</time>
      </trkpt>
      <trkpt lat="49.16786" lon="1.93577">
        <ele>77</ele>
        <time>2022-07-28T09:41:38Z</time>
      </trkpt>
      <trkpt lat="49.16787" lon="1.93546">
        <ele>78</ele>
        <time>2022-07-28T09:42:05Z</time>
      </trkpt>
      <trkpt lat="49.16793" lon="1.93529">
        <ele>77</ele>
        <time>2022-07-28T09:42:22Z</time>
      </trkpt>
      <trkpt lat="49.16796" lon="1.93507">
        <ele>78</ele>
        <time>2022-07-28T09:42:41Z</time>
      </trkpt>
      <trkpt lat="49.16797" lon="1.93409">
        <ele>82</ele>
        <time>2022-07-28T09:44:07Z</time>
      </trkpt>
      <trkpt lat="49.16803" lon="1.93366">
        <ele>83</ele>
        <time>2022-07-28T09:44:45Z</time>
      </trkpt>
      <trkpt lat="49.16812" lon="1.93333">
        <ele>84</ele>
        <time>2022-07-28T09:45:16Z</time>
      </trkpt>
      <trkpt lat="49.1685" lon="1.93249">
        <ele>84</ele>
        <time>2022-07-28T09:46:45Z</time>
      </trkpt>
      <trkpt lat="49.1686" lon="1.93233">
        <ele>84</ele>
        <time>2022-07-28T09:47:05Z</time>
      </trkpt>
      <trkpt lat="49.16871" lon="1.93204">
        <ele>84</ele>
        <time>2022-07-28T09:47:34Z</time>
      </trkpt>
      <trkpt lat="49.16873" lon="1.93192">
        <ele>85</ele>
        <time>2022-07-28T09:47:45Z</time>
      </trkpt>
      <trkpt lat="49.16874" lon="1.93155">
        <ele>86</ele>
        <time>2022-07-28T09:48:17Z</time>
      </trkpt>
      <trkpt lat="49.16866" lon="1.9307">
        <ele>89</ele>
        <time>2022-07-28T09:49:32Z</time>
      </trkpt>
      <trkpt lat="49.16868" lon="1.93027">
        <ele>91</ele>
        <time>2022-07-28T09:50:10Z</time>
      </trkpt>
      <trkpt lat="49.16853" lon="1.92948">
        <ele>94</ele>
        <time>2022-07-28T09:51:21Z</time>
      </trkpt>
      <trkpt lat="49.16853" lon="1.92928">
        <ele>94</ele>
        <time>2022-07-28T09:51:39Z</time>
      </trkpt>
      <trkpt lat="49.16849" lon="1.92901">
        <ele>95</ele>
        <time>2022-07-28T09:52:03Z</time>
      </trkpt>
      <trkpt lat="49.16851" lon="1.92887">
        <ele>95</ele>
        <time>2022-07-28T09:52:15Z</time>
      </trkpt>
      <trkpt lat="49.16848" lon="1.92851">
        <ele>97</ele>
        <time>2022-07-28T09:52:47Z</time>
      </trkpt>
      <trkpt lat="49.16849" lon="1.92821">
        <ele>97</ele>
        <time>2022-07-28T09:53:13Z</time>
      </trkpt>
      <trkpt lat="49.16843" lon="1.92801">
        <ele>98</ele>
        <time>2022-07-28T09:53:33Z</time>
      </trkpt>
      <trkpt lat="49.16846" lon="1.92759">
        <ele>100</ele>
        <time>2022-07-28T09:54:09Z</time>
      </trkpt>
      <trkpt lat="49.16841" lon="1.92697">
        <ele>103</ele>
        <time>2022-07-28T09:55:04Z</time>
      </trkpt>
      <trkpt lat="49.16843" lon="1.92625">
        <ele>107</ele>
        <time>2022-07-28T09:56:07Z</time>
      </trkpt>
      <trkpt lat="49.16838" lon="1.92578">
        <ele>109</ele>
        <time>2022-07-28T09:56:48Z</time>
      </trkpt>
      <trkpt lat="49.16837" lon="1.92532">
        <ele>111</ele>
        <time>2022-07-28T09:57:29Z</time>
      </trkpt>
      <trkpt lat="49.16826" lon="1.9249">
        <ele>112</ele>
        <time>2022-07-28T09:58:08Z</time>
      </trkpt>
      <trkpt lat="49.1682" lon="1.92481">
        <ele>112</ele>
        <time>2022-07-28T09:58:19Z</time>
      </trkpt>
      <trkpt lat="49.16812" lon="1.92475">
        <ele>111</ele>
        <time>2022-07-28T09:58:31Z</time>
      </trkpt>
      <trkpt lat="49.16805" lon="1.92474">
        <ele>111</ele>
        <time>2022-07-28T09:58:40Z</time>
      </trkpt>
      <trkpt lat="49.16789" lon="1.92478">
        <ele>111</ele>
        <time>2022-07-28T09:59:02Z</time>
      </trkpt>
      <trkpt lat="49.1677" lon="1.92479">
        <ele>111</ele>
        <time>2022-07-28T09:59:27Z</time>
      </trkpt>
      <trkpt lat="49.16741" lon="1.9249">
        <ele>110</ele>
        <time>2022-07-28T10:00:07Z</time>
      </trkpt>
      <trkpt lat="49.16669" lon="1.92492">
        <ele>111</ele>
        <time>2022-07-28T10:01:43Z</time>
      </trkpt>
      <trkpt lat="49.16663" lon="1.92489">
        <ele>111</ele>
        <time>2022-07-28T10:01:52Z</time>
      </trkpt>
      <trkpt lat="49.16649" lon="1.92489">
        <ele>111</ele>
        <time>2022-07-28T10:02:11Z</time>
      </trkpt>
      <trkpt lat="49.16642" lon="1.92467">
        <ele>111</ele>
        <time>2022-07-28T10:02:32Z</time>
      </trkpt>
      <trkpt lat="49.1667" lon="1.92432">
        <ele>113</ele>
        <time>2022-07-28T10:03:20Z</time>
      </trkpt>
      <trkpt lat="49.1669" lon="1.92395">
        <ele>112</ele>
        <time>2022-07-28T10:04:02Z</time>
      </trkpt>
      <trkpt lat="49.16704" lon="1.92363">
        <ele>111</ele>
        <time>2022-07-28T10:04:36Z</time>
      </trkpt>
      <trkpt lat="49.16712" lon="1.92355">
        <ele>111</ele>
        <time>2022-07-28T10:04:48Z</time>
      </trkpt>
      <trkpt lat="49.16726" lon="1.92322">
        <ele>110</ele>
        <time>2022-07-28T10:05:23Z</time>
      </trkpt>
      <trkpt lat="49.16721" lon="1.92312">
        <ele>109</ele>
        <time>2022-07-28T10:05:34Z</time>
      </trkpt>
      <trkpt lat="49.1672" lon="1.92303">
        <ele>109</ele>
        <time>2022-07-28T10:05:42Z</time>
      </trkpt>
      <trkpt lat="49.16696" lon="1.92281">
        <ele>108</ele>
        <time>2022-07-28T10:06:19Z</time>
      </trkpt>
      <trkpt lat="49.16672" lon="1.92245">
        <ele>106</ele>
        <time>2022-07-28T10:07:04Z</time>
      </trkpt>
      <trkpt lat="49.1666" lon="1.92216">
        <ele>104</ele>
        <time>2022-07-28T10:07:34Z</time>
      </trkpt>
      <trkpt lat="49.16628" lon="1.92158">
        <ele>102</ele>
        <time>2022-07-28T10:08:40Z</time>
      </trkpt>
      <trkpt lat="49.16623" lon="1.92141">
        <ele>101</ele>
        <time>2022-07-28T10:08:56Z</time>
      </trkpt>
      <trkpt lat="49.1661" lon="1.92118">
        <ele>101</ele>
        <time>2022-07-28T10:09:23Z</time>
      </trkpt>
      <trkpt lat="49.16604" lon="1.92111">
        <ele>101</ele>
        <time>2022-07-28T10:09:33Z</time>
      </trkpt>
      <trkpt lat="49.16582" lon="1.92098">
        <ele>100</ele>
        <time>2022-07-28T10:10:04Z</time>
      </trkpt>
      <trkpt lat="49.16572" lon="1.92097">
        <ele>100</ele>
        <time>2022-07-28T10:10:18Z</time>
      </trkpt>
      <trkpt lat="49.16546" lon="1.92103">
        <ele>100</ele>
        <time>2022-07-28T10:10:53Z</time>
      </trkpt>
      <trkpt lat="49.16532" lon="1.92102">
        <ele>100</ele>
        <time>2022-07-28T10:11:12Z</time>
      </trkpt>
      <trkpt lat="49.16524" lon="1.92099">
        <ele>100</ele>
        <time>2022-07-28T10:11:23Z</time>
      </trkpt>
      <trkpt lat="49.16508" lon="1.92092">
        <ele>100</ele>
        <time>2022-07-28T10:11:45Z</time>
      </trkpt>
      <trkpt lat="49.16468" lon="1.92063">
        <ele>99</ele>
        <time>2022-07-28T10:12:44Z</time>
      </trkpt>
      <trkpt lat="49.16457" lon="1.92046">
        <ele>98</ele>
        <time>2022-07-28T10:13:05Z</time>
      </trkpt>
      <trkpt lat="49.16451" lon="1.92027">
        <ele>98</ele>
        <time>2022-07-28T10:13:23Z</time>
      </trkpt>
      <trkpt lat="49.1645" lon="1.92015">
        <ele>98</ele>
        <time>2022-07-28T10:13:34Z</time>
      </trkpt>
      <trkpt lat="49.1643" lon="1.91969">
        <ele>98</ele>
        <time>2022-07-28T10:14:22Z</time>
      </trkpt>
      <trkpt lat="49.16417" lon="1.91951">
        <ele>98</ele>
        <time>2022-07-28T10:14:45Z</time>
      </trkpt>
      <trkpt lat="49.16403" lon="1.91942">
        <ele>98</ele>
        <time>2022-07-28T10:15:06Z</time>
      </trkpt>
      <trkpt lat="49.16394" lon="1.9194">
        <ele>98</ele>
        <time>2022-07-28T10:15:18Z</time>
      </trkpt>
      <trkpt lat="49.16377" lon="1.91942">
        <ele>97</ele>
        <time>2022-07-28T10:15:40Z</time>
      </trkpt>
      <trkpt lat="49.16355" lon="1.91953">
        <ele>97</ele>
        <time>2022-07-28T10:16:11Z</time>
      </trkpt>
      <trkpt lat="49.16331" lon="1.91972">
        <ele>98</ele>
        <time>2022-07-28T10:16:47Z</time>
      </trkpt>
      <trkpt lat="49.16325" lon="1.91979">
        <ele>98</ele>
        <time>2022-07-28T10:16:57Z</time>
      </trkpt>
      <trkpt lat="49.16322" lon="1.91988">
        <ele>98</ele>
        <time>2022-07-28T10:17:06Z</time>
      </trkpt>
      <trkpt lat="49.16324" lon="1.91977">
        <ele>98</ele>
        <time>2022-07-28T10:17:16Z</time>
      </trkpt>
      <trkpt lat="49.16323" lon="1.91981">
        <ele>98</ele>
        <time>2022-07-28T10:17:20Z</time>
      </trkpt>
      <trkpt lat="49.16317" lon="1.91974">
        <ele>98</ele>
        <time>2022-07-28T10:17:30Z</time>
      </trkpt>
      <trkpt lat="49.16301" lon="1.91979">
        <ele>98</ele>
        <time>2022-07-28T10:17:52Z</time>
      </trkpt>
      <trkpt lat="49.16279" lon="1.91981">
        <ele>97</ele>
        <time>2022-07-28T10:18:21Z</time>
      </trkpt>
      <trkpt lat="49.16218" lon="1.91978">
        <ele>95</ele>
        <time>2022-07-28T10:19:43Z</time>
      </trkpt>
      <trkpt lat="49.16174" lon="1.91983">
        <ele>94</ele>
        <time>2022-07-28T10:20:42Z</time>
      </trkpt>
      <trkpt lat="49.16167" lon="1.91989">
        <ele>94</ele>
        <time>2022-07-28T10:20:52Z</time>
      </trkpt>
      <trkpt lat="49.16159" lon="1.92008">
        <ele>94</ele>
        <time>2022-07-28T10:21:12Z</time>
      </trkpt>
      <trkpt lat="49.16148" lon="1.92054">
        <ele>94</ele>
        <time>2022-07-28T10:21:55Z</time>
      </trkpt>
      <trkpt lat="49.1615" lon="1.92094">
        <ele>94</ele>
        <time>2022-07-28T10:22:30Z</time>
      </trkpt>
      <trkpt lat="49.16148" lon="1.92156">
        <ele>95</ele>
        <time>2022-07-28T10:23:24Z</time>
      </trkpt>
      <trkpt lat="49.1614" lon="1.92226">
        <ele>94</ele>
        <time>2022-07-28T10:24:26Z</time>
      </trkpt>
      <trkpt lat="49.16142" lon="1.92272">
        <ele>94</ele>
        <time>2022-07-28T10:25:06Z</time>
      </trkpt>
      <trkpt lat="49.16139" lon="1.92342">
        <ele>94</ele>
        <time>2022-07-28T10:26:07Z</time>
      </trkpt>
      <trkpt lat="49.16141" lon="1.92478">
        <ele>93</ele>
        <time>2022-07-28T10:28:06Z</time>
      </trkpt>
      <trkpt lat="49.16135" lon="1.92536">
        <ele>92</ele>
        <time>2022-07-28T10:28:57Z</time>
      </trkpt>
      <trkpt lat="49.1614" lon="1.92606">
        <ele>92</ele>
        <time>2022-07-28T10:29:59Z</time>
      </trkpt>
      <trkpt lat="49.16139" lon="1.92628">
        <ele>92</ele>
        <time>2022-07-28T10:30:18Z</time>
      </trkpt>
      <trkpt lat="49.16136" lon="1.92647">
        <ele>91</ele>
        <time>2022-07-28T10:30:35Z</time>
      </trkpt>
      <trkpt lat="49.16131" lon="1.92658">
        <ele>91</ele>
        <time>2022-07-28T10:30:47Z</time>
      </trkpt>
      <trkpt lat="49.16111" lon="1.92744">
        <ele>90</ele>
        <time>2022-07-28T10:32:06Z</time>
      </trkpt>
      <trkpt lat="49.16107" lon="1.92756">
        <ele>89</ele>
        <time>2022-07-28T10:32:18Z</time>
      </trkpt>
      <trkpt lat="49.16102" lon="1.92755">
        <ele>89</ele>
        <time>2022-07-28T10:32:25Z</time>
      </trkpt>
      <trkpt lat="49.16099" lon="1.92762">
        <ele>89</ele>
        <time>2022-07-28T10:32:32Z</time>
      </trkpt>
      <trkpt lat="49.16088" lon="1.92821">
        <ele>89</ele>
        <time>2022-07-28T10:33:26Z</time>
      </trkpt>
      <trkpt lat="49.16078" lon="1.92852">
        <ele>89</ele>
        <time>2022-07-28T10:33:56Z</time>
      </trkpt>
      <trkpt lat="49.16077" lon="1.92864">
        <ele>89</ele>
        <time>2022-07-28T10:34:06Z</time>
      </trkpt>
      <trkpt lat="49.16073" lon="1.92872">
        <ele>89</ele>
        <time>2022-07-28T10:34:15Z</time>
      </trkpt>
      <trkpt lat="49.16073" lon="1.92888">
        <ele>89</ele>
        <time>2022-07-28T10:34:29Z</time>
      </trkpt>
      <trkpt lat="49.16066" lon="1.92916">
        <ele>88</ele>
        <time>2022-07-28T10:34:55Z</time>
      </trkpt>
      <trkpt lat="49.16061" lon="1.92991">
        <ele>86</ele>
        <time>2022-07-28T10:36:01Z</time>
      </trkpt>
      <trkpt lat="49.16066" lon="1.93013">
        <ele>85</ele>
        <time>2022-07-28T10:36:21Z</time>
      </trkpt>
      <trkpt lat="49.16063" lon="1.93019">
        <ele>85</ele>
        <time>2022-07-28T10:36:28Z</time>
      </trkpt>
      <trkpt lat="49.16072" lon="1.93052">
        <ele>81</ele>
        <time>2022-07-28T10:36:59Z</time>
      </trkpt>
      <trkpt lat="49.16071" lon="1.93071">
        <ele>80</ele>
        <time>2022-07-28T10:37:16Z</time>
      </trkpt>
      <trkpt lat="49.16076" lon="1.93084">
        <ele>79</ele>
        <time>2022-07-28T10:37:29Z</time>
      </trkpt>
      <trkpt lat="49.16035" lon="1.93105">
        <ele>80</ele>
        <time>2022-07-28T10:38:27Z</time>
      </trkpt>
      <trkpt lat="49.16023" lon="1.93123">
        <ele>80</ele>
        <time>2022-07-28T10:38:49Z</time>
      </trkpt>
      <trkpt lat="49.16017" lon="1.93156">
        <ele>78</ele>
        <time>2022-07-28T10:39:19Z</time>
      </trkpt>
      <trkpt lat="49.16009" lon="1.93226">
        <ele>73</ele>
        <time>2022-07-28T10:40:21Z</time>
      </trkpt>
      <trkpt lat="49.15992" lon="1.93256">
        <ele>72</ele>
        <time>2022-07-28T10:40:56Z</time>
      </trkpt>
      <trkpt lat="49.15982" lon="1.93283">
        <ele>73</ele>
        <time>2022-07-28T10:41:23Z</time>
      </trkpt>
      <trkpt lat="49.15966" lon="1.93311">
        <ele>73</ele>
        <time>2022-07-28T10:41:55Z</time>
      </trkpt>
      <trkpt lat="49.1596" lon="1.93329">
        <ele>73</ele>
        <time>2022-07-28T10:42:13Z</time>
      </trkpt>
      <trkpt lat="49.15954" lon="1.93334">
        <ele>74</ele>
        <time>2022-07-28T10:42:22Z</time>
      </trkpt>
      <trkpt lat="49.15944" lon="1.93351">
        <ele>74</ele>
        <time>2022-07-28T10:42:42Z</time>
      </trkpt>
      <trkpt lat="49.15939" lon="1.93372">
        <ele>73</ele>
        <time>2022-07-28T10:43:01Z</time>
      </trkpt>
      <trkpt lat="49.15927" lon="1.93401">
        <ele>70</ele>
        <time>2022-07-28T10:43:31Z</time>
      </trkpt>
      <trkpt lat="49.15919" lon="1.9343">
        <ele>68</ele>
        <time>2022-07-28T10:43:59Z</time>
      </trkpt>
      <trkpt lat="49.15896" lon="1.93453">
        <ele>67</ele>
        <time>2022-07-28T10:44:36Z</time>
      </trkpt>
      <trkpt lat="49.15883" lon="1.93459">
        <ele>67</ele>
        <time>2022-07-28T10:44:54Z</time>
      </trkpt>
      <trkpt lat="49.1584" lon="1.93469">
        <ele>67</ele>
        <time>2022-07-28T10:45:52Z</time>
      </trkpt>
      <trkpt lat="49.1583" lon="1.93462">
        <ele>69</ele>
        <time>2022-07-28T10:46:06Z</time>
      </trkpt>
      <trkpt lat="49.15823" lon="1.9345">
        <ele>70</ele>
        <time>2022-07-28T10:46:20Z</time>
      </trkpt>
      <trkpt lat="49.15811" lon="1.93456">
        <ele>70</ele>
        <time>2022-07-28T10:46:37Z</time>
      </trkpt>
      <trkpt lat="49.15785" lon="1.9345">
        <ele>71</ele>
        <time>2022-07-28T10:47:12Z</time>
      </trkpt>
      <trkpt lat="49.15741" lon="1.9343">
        <ele>73</ele>
        <time>2022-07-28T10:48:14Z</time>
      </trkpt>
      <trkpt lat="49.15731" lon="1.93433">
        <ele>72</ele>
        <time>2022-07-28T10:48:27Z</time>
      </trkpt>
      <trkpt lat="49.15715" lon="1.93432">
        <ele>72</ele>
        <time>2022-07-28T10:48:49Z</time>
      </trkpt>
      <trkpt lat="49.157" lon="1.93436">
        <ele>72</ele>
        <time>2022-07-28T10:49:09Z</time>
      </trkpt>
      <trkpt lat="49.15682" lon="1.93434">
        <ele>72</ele>
        <time>2022-07-28T10:49:33Z</time>
      </trkpt>
      <trkpt lat="49.15616" lon="1.93441">
        <ele>72</ele>
        <time>2022-07-28T10:51:01Z</time>
      </trkpt>
      <trkpt lat="49.15608" lon="1.93439">
        <ele>72</ele>
        <time>2022-07-28T10:51:12Z</time>
      </trkpt>
      <trkpt lat="49.15586" lon="1.93444">
        <ele>71</ele>
        <time>2022-07-28T10:51:42Z</time>
      </trkpt>
      <trkpt lat="49.15557" lon="1.9344">
        <ele>75</ele>
        <time>2022-07-28T10:52:21Z</time>
      </trkpt>
      <trkpt lat="49.15542" lon="1.93441">
        <ele>77</ele>
        <time>2022-07-28T10:52:41Z</time>
      </trkpt>
      <trkpt lat="49.15536" lon="1.93449">
        <ele>77</ele>
        <time>2022-07-28T10:52:51Z</time>
      </trkpt>
      <trkpt lat="49.15516" lon="1.93463">
        <ele>77</ele>
        <time>2022-07-28T10:53:21Z</time>
      </trkpt>
      <trkpt lat="49.15477" lon="1.93511">
        <ele>75</ele>
        <time>2022-07-28T10:54:27Z</time>
      </trkpt>
      <trkpt lat="49.15469" lon="1.93517">
        <ele>76</ele>
        <time>2022-07-28T10:54:39Z</time>
      </trkpt>
      <trkpt lat="49.15429" lon="1.93561">
        <ele>74</ele>
        <time>2022-07-28T10:55:45Z</time>
      </trkpt>
      <trkpt lat="49.15419" lon="1.93578">
        <ele>72</ele>
        <time>2022-07-28T10:56:05Z</time>
      </trkpt>
      <trkpt lat="49.15407" lon="1.93588">
        <ele>72</ele>
        <time>2022-07-28T10:56:23Z</time>
      </trkpt>
      <trkpt lat="49.15392" lon="1.9362">
        <ele>71</ele>
        <time>2022-07-28T10:56:58Z</time>
      </trkpt>
      <trkpt lat="49.15369" lon="1.93649">
        <ele>71</ele>
        <time>2022-07-28T10:57:37Z</time>
      </trkpt>
      <trkpt lat="49.15353" lon="1.93676">
        <ele>70</ele>
        <time>2022-07-28T10:58:09Z</time>
      </trkpt>
      <trkpt lat="49.1534" lon="1.93718">
        <ele>67</ele>
        <time>2022-07-28T10:58:50Z</time>
      </trkpt>
      <trkpt lat="49.15319" lon="1.93753">
        <ele>66</ele>
        <time>2022-07-28T10:59:31Z</time>
      </trkpt>
      <trkpt lat="49.15275" lon="1.93839">
        <ele>66</ele>
        <time>2022-07-28T11:01:07Z</time>
      </trkpt>
      <trkpt lat="49.15267" lon="1.93843">
        <ele>67</ele>
        <time>2022-07-28T11:01:18Z</time>
      </trkpt>
      <trkpt lat="49.15262" lon="1.93855">
        <ele>66</ele>
        <time>2022-07-28T11:01:30Z</time>
      </trkpt>
      <trkpt lat="49.15254" lon="1.93892">
        <ele>65</ele>
        <time>2022-07-28T11:02:04Z</time>
      </trkpt>
      <trkpt lat="49.15243" lon="1.93909">
        <ele>64</ele>
        <time>2022-07-28T11:02:25Z</time>
      </trkpt>
      <trkpt lat="49.15242" lon="1.93918">
        <ele>64</ele>
        <time>2022-07-28T11:02:33Z</time>
      </trkpt>
      <trkpt lat="49.1522" lon="1.93953">
        <ele>63</ele>
        <time>2022-07-28T11:03:15Z</time>
      </trkpt>
      <trkpt lat="49.15204" lon="1.93962">
        <ele>62</ele>
        <time>2022-07-28T11:03:38Z</time>
      </trkpt>
      <trkpt lat="49.15193" lon="1.93964">
        <ele>62</ele>
        <time>2022-07-28T11:03:53Z</time>
      </trkpt>
      <trkpt lat="49.15187" lon="1.93957">
        <ele>62</ele>
        <time>2022-07-28T11:04:03Z</time>
      </trkpt>
      <trkpt lat="49.15176" lon="1.93951">
        <ele>62</ele>
        <time>2022-07-28T11:04:19Z</time>
      </trkpt>
      <trkpt lat="49.15164" lon="1.93927">
        <ele>63</ele>
        <time>2022-07-28T11:04:45Z</time>
      </trkpt>
      <trkpt lat="49.15147" lon="1.93877">
        <ele>66</ele>
        <time>2022-07-28T11:05:34Z</time>
      </trkpt>
      <trkpt lat="49.15128" lon="1.93798">
        <ele>70</ele>
        <time>2022-07-28T11:06:48Z</time>
      </trkpt>
      <trkpt lat="49.15116" lon="1.93771">
        <ele>71</ele>
        <time>2022-07-28T11:07:16Z</time>
      </trkpt>
      <trkpt lat="49.15098" lon="1.93746">
        <ele>71</ele>
        <time>2022-07-28T11:07:49Z</time>
      </trkpt>
      <trkpt lat="49.15081" lon="1.93705">
        <ele>73</ele>
        <time>2022-07-28T11:08:31Z</time>
      </trkpt>
      <trkpt lat="49.1502" lon="1.93629">
        <ele>76</ele>
        <time>2022-07-28T11:10:16Z</time>
      </trkpt>
      <trkpt lat="49.15005" lon="1.93614">
        <ele>77</ele>
        <time>2022-07-28T11:10:40Z</time>
      </trkpt>
      <trkpt lat="49.14979" lon="1.93595">
        <ele>77</ele>
        <time>2022-07-28T11:11:18Z</time>
      </trkpt>
      <trkpt lat="49.1494" lon="1.93581">
        <ele>75</ele>
        <time>2022-07-28T11:12:12Z</time>
      </trkpt>
      <trkpt lat="49.14935" lon="1.93576">
        <ele>76</ele>
        <time>2022-07-28T11:12:20Z</time>
      </trkpt>
      <trkpt lat="49.14893" lon="1.93568">
        <ele>74</ele>
        <time>2022-07-28T11:13:16Z</time>
      </trkpt>
      <trkpt lat="49.14883" lon="1.93553">
        <ele>76</ele>
        <time>2022-07-28T11:13:35Z</time>
      </trkpt>
      <trkpt lat="49.14879" lon="1.93551">
        <ele>76</ele>
        <time>2022-07-28T11:13:41Z</time>
      </trkpt>
      <trkpt lat="49.14877" lon="1.93553">
        <ele>75</ele>
        <time>2022-07-28T11:13:44Z</time>
      </trkpt>
      <trkpt lat="49.1487" lon="1.93551">
        <ele>75</ele>
        <time>2022-07-28T11:13:53Z</time>
      </trkpt>
      <trkpt lat="49.14868" lon="1.93548">
        <ele>76</ele>
        <time>2022-07-28T11:13:57Z</time>
      </trkpt>
      <trkpt lat="49.14865" lon="1.93557">
        <ele>74</ele>
        <time>2022-07-28T11:14:06Z</time>
      </trkpt>
      <trkpt lat="49.14868" lon="1.93563">
        <ele>74</ele>
        <time>2022-07-28T11:14:12Z</time>
      </trkpt>
      <trkpt lat="49.14868" lon="1.93555">
        <ele>75</ele>
        <time>2022-07-28T11:14:19Z</time>
      </trkpt>
      <trkpt lat="49.14864" lon="1.93551">
        <ele>75</ele>
        <time>2022-07-28T11:14:26Z</time>
      </trkpt>
      <trkpt lat="49.14837" lon="1.93544">
        <ele>75</ele>
        <time>2022-07-28T11:15:02Z</time>
      </trkpt>
      <trkpt lat="49.1481" lon="1.93552">
        <ele>75</ele>
        <time>2022-07-28T11:15:39Z</time>
      </trkpt>
      <trkpt lat="49.14776" lon="1.93569">
        <ele>73</ele>
        <time>2022-07-28T11:16:27Z</time>
      </trkpt>
      <trkpt lat="49.14761" lon="1.93572">
        <ele>72</ele>
        <time>2022-07-28T11:16:47Z</time>
      </trkpt>
      <trkpt lat="49.14751" lon="1.93578">
        <ele>72</ele>
        <time>2022-07-28T11:17:01Z</time>
      </trkpt>
      <trkpt lat="49.14725" lon="1.93585">
        <ele>70</ele>
        <time>2022-07-28T11:17:36Z</time>
      </trkpt>
      <trkpt lat="49.14696" lon="1.93602">
        <ele>67</ele>
        <time>2022-07-28T11:18:18Z</time>
      </trkpt>
      <trkpt lat="49.14657" lon="1.936">
        <ele>65</ele>
        <time>2022-07-28T11:19:10Z</time>
      </trkpt>
      <trkpt lat="49.14651" lon="1.93594">
        <ele>66</ele>
        <time>2022-07-28T11:19:20Z</time>
      </trkpt>
      <trkpt lat="49.14615" lon="1.93589">
        <ele>64</ele>
        <time>2022-07-28T11:20:08Z</time>
      </trkpt>
      <trkpt lat="49.14596" lon="1.93576">
        <ele>65</ele>
        <time>2022-07-28T11:20:36Z</time>
      </trkpt>
      <trkpt lat="49.14579" lon="1.93559">
        <ele>66</ele>
        <time>2022-07-28T11:21:03Z</time>
      </trkpt>
      <trkpt lat="49.14568" lon="1.93553">
        <ele>65</ele>
        <time>2022-07-28T11:21:18Z</time>
      </trkpt>
      <trkpt lat="49.14546" lon="1.93534">
        <ele>65</ele>
        <time>2022-07-28T11:21:52Z</time>
      </trkpt>
      <trkpt lat="49.14537" lon="1.93519">
        <ele>65</ele>
        <time>2022-07-28T11:22:10Z</time>
      </trkpt>
      <trkpt lat="49.14534" lon="1.93507">
        <ele>66</ele>
        <time>2022-07-28T11:22:21Z</time>
      </trkpt>
      <trkpt lat="49.14526" lon="1.93446">
        <ele>66</ele>
        <time>2022-07-28T11:23:15Z</time>
      </trkpt>
      <trkpt lat="49.14531" lon="1.9342">
        <ele>67</ele>
        <time>2022-07-28T11:23:39Z</time>
      </trkpt>
      <trkpt lat="49.14539" lon="1.93403">
        <ele>68</ele>
        <time>2022-07-28T11:23:57Z</time>
      </trkpt>
      <trkpt lat="49.14556" lon="1.93316">
        <ele>68</ele>
        <time>2022-07-28T11:25:16Z</time>
      </trkpt>
      <trkpt lat="49.14581" lon="1.93258">
        <ele>69</ele>
        <time>2022-07-28T11:26:17Z</time>
      </trkpt>
      <trkpt lat="49.14585" lon="1.93234">
        <ele>69</ele>
        <time>2022-07-28T11:26:39Z</time>
      </trkpt>
      <trkpt lat="49.14592" lon="1.93214">
        <ele>70</ele>
        <time>2022-07-28T11:26:59Z</time>
      </trkpt>
      <trkpt lat="49.14605" lon="1.9319">
        <ele>71</ele>
        <time>2022-07-28T11:27:26Z</time>
      </trkpt>
      <trkpt lat="49.14608" lon="1.93178">
        <ele>71</ele>
        <time>2022-07-28T11:27:37Z</time>
      </trkpt>
      <trkpt lat="49.14624" lon="1.93142">
        <ele>73</ele>
        <time>2022-07-28T11:28:15Z</time>
      </trkpt>
      <trkpt lat="49.14639" lon="1.93094">
        <ele>75</ele>
        <time>2022-07-28T11:29:01Z</time>
      </trkpt>
      <trkpt lat="49.14646" lon="1.93051">
        <ele>75</ele>
        <time>2022-07-28T11:29:40Z</time>
      </trkpt>
      <trkpt lat="49.14648" lon="1.93027">
        <ele>75</ele>
        <time>2022-07-28T11:30:01Z</time>
      </trkpt>
      <trkpt lat="49.14642" lon="1.9291">
        <ele>74</ele>
        <time>2022-07-28T11:31:44Z</time>
      </trkpt>
      <trkpt lat="49.14644" lon="1.92901">
        <ele>74</ele>
        <time>2022-07-28T11:31:52Z</time>
      </trkpt>
      <trkpt lat="49.14639" lon="1.92885">
        <ele>75</ele>
        <time>2022-07-28T11:32:07Z</time>
      </trkpt>
      <trkpt lat="49.14641" lon="1.92865">
        <ele>76</ele>
        <time>2022-07-28T11:32:25Z</time>
      </trkpt>
      <trkpt lat="49.14632" lon="1.92819">
        <ele>76</ele>
        <time>2022-07-28T11:33:07Z</time>
      </trkpt>
      <trkpt lat="49.14627" lon="1.92762">
        <ele>76</ele>
        <time>2022-07-28T11:33:57Z</time>
      </trkpt>
      <trkpt lat="49.14634" lon="1.92751">
        <ele>77</ele>
        <time>2022-07-28T11:34:11Z</time>
      </trkpt>
      <trkpt lat="49.14639" lon="1.92703">
        <ele>76</ele>
        <time>2022-07-28T11:34:53Z</time>
      </trkpt>
      <trkpt lat="49.14643" lon="1.92694">
        <ele>76</ele>
        <time>2022-07-28T11:35:03Z</time>
      </trkpt>
      <trkpt lat="49.14642" lon="1.92664">
        <ele>76</ele>
        <time>2022-07-28T11:35:29Z</time>
      </trkpt>
      <trkpt lat="49.14645" lon="1.9264">
        <ele>76</ele>
        <time>2022-07-28T11:35:50Z</time>
      </trkpt>
      <trkpt lat="49.14642" lon="1.92576">
        <ele>78</ele>
        <time>2022-07-28T11:36:46Z</time>
      </trkpt>
      <trkpt lat="49.14648" lon="1.92561">
        <ele>79</ele>
        <time>2022-07-28T11:37:01Z</time>
      </trkpt>
      <trkpt lat="49.14646" lon="1.92533">
        <ele>80</ele>
        <time>2022-07-28T11:37:26Z</time>
      </trkpt>
      <trkpt lat="49.14641" lon="1.92516">
        <ele>82</ele>
        <time>2022-07-28T11:37:42Z</time>
      </trkpt>
      <trkpt lat="49.14653" lon="1.92487">
        <ele>82</ele>
        <time>2022-07-28T11:38:12Z</time>
      </trkpt>
      <trkpt lat="49.14652" lon="1.92475">
        <ele>82</ele>
        <time>2022-07-28T11:38:23Z</time>
      </trkpt>
      <trkpt lat="49.14658" lon="1.9246">
        <ele>82</ele>
        <time>2022-07-28T11:38:38Z</time>
      </trkpt>
      <trkpt lat="49.14673" lon="1.92402">
        <ele>83</ele>
        <time>2022-07-28T11:39:33Z</time>
      </trkpt>
      <trkpt lat="49.14678" lon="1.92392">
        <ele>83</ele>
        <time>2022-07-28T11:39:44Z</time>
      </trkpt>
      <trkpt lat="49.1469" lon="1.92295">
        <ele>86</ele>
        <time>2022-07-28T11:41:10Z</time>
      </trkpt>
      <trkpt lat="49.14691" lon="1.92268">
        <ele>86</ele>
        <time>2022-07-28T11:41:33Z</time>
      </trkpt>
      <trkpt lat="49.14697" lon="1.92237">
        <ele>87</ele>
        <time>2022-07-28T11:42:02Z</time>
      </trkpt>
      <trkpt lat="49.14701" lon="1.92184">
        <ele>87</ele>
        <time>2022-07-28T11:42:48Z</time>
      </trkpt>
      <trkpt lat="49.14705" lon="1.92178">
        <ele>87</ele>
        <time>2022-07-28T11:42:56Z</time>
      </trkpt>
      <trkpt lat="49.1471" lon="1.92157">
        <ele>87</ele>
        <time>2022-07-28T11:43:15Z</time>
      </trkpt>
      <trkpt lat="49.14715" lon="1.92147">
        <ele>87</ele>
        <time>2022-07-28T11:43:26Z</time>
      </trkpt>
      <trkpt lat="49.14723" lon="1.92101">
        <ele>87</ele>
        <time>2022-07-28T11:44:08Z</time>
      </trkpt>
      <trkpt lat="49.14726" lon="1.92091">
        <ele>87</ele>
        <time>2022-07-28T11:44:17Z</time>
      </trkpt>
      <trkpt lat="49.14739" lon="1.92069">
        <ele>87</ele>
        <time>2022-07-28T11:44:43Z</time>
      </trkpt>
      <trkpt lat="49.1476" lon="1.92056">
        <ele>87</ele>
        <time>2022-07-28T11:45:13Z</time>
      </trkpt>
      <trkpt lat="49.14765" lon="1.92049">
        <ele>87</ele>
        <time>2022-07-28T11:45:22Z</time>
      </trkpt>
      <trkpt lat="49.14774" lon="1.92048">
        <ele>88</ele>
        <time>2022-07-28T11:45:34Z</time>
      </trkpt>
      <trkpt lat="49.14777" lon="1.92041">
        <ele>88</ele>
        <time>2022-07-28T11:45:42Z</time>
      </trkpt>
      <trkpt lat="49.14776" lon="1.92009">
        <ele>87</ele>
        <time>2022-07-28T11:46:10Z</time>
      </trkpt>
      <trkpt lat="49.14765" lon="1.91976">
        <ele>88</ele>
        <time>2022-07-28T11:46:42Z</time>
      </trkpt>
      <trkpt lat="49.14756" lon="1.91907">
        <ele>89</ele>
        <time>2022-07-28T11:47:43Z</time>
      </trkpt>
      <trkpt lat="49.14748" lon="1.91886">
        <ele>89</ele>
        <time>2022-07-28T11:48:05Z</time>
      </trkpt>
      <trkpt lat="49.14718" lon="1.91827">
        <ele>90</ele>
        <time>2022-07-28T11:49:10Z</time>
      </trkpt>
      <trkpt lat="49.14698" lon="1.91797">
        <ele>91</ele>
        <time>2022-07-28T11:49:47Z</time>
      </trkpt>
      <trkpt lat="49.14691" lon="1.9179">
        <ele>91</ele>
        <time>2022-07-28T11:49:58Z</time>
      </trkpt>
      <trkpt lat="49.14676" lon="1.91758">
        <ele>92</ele>
        <time>2022-07-28T11:50:33Z</time>
      </trkpt>
      <trkpt lat="49.1467" lon="1.9175">
        <ele>92</ele>
        <time>2022-07-28T11:50:43Z</time>
      </trkpt>
      <trkpt lat="49.14662" lon="1.91762">
        <ele>92</ele>
        <time>2022-07-28T11:50:58Z</time>
      </trkpt>
      <trkpt lat="49.14662" lon="1.91758">
        <ele>92</ele>
        <time>2022-07-28T11:51:02Z</time>
      </trkpt>
      <trkpt lat="49.14664" lon="1.91755">
        <ele>92</ele>
        <time>2022-07-28T11:51:06Z</time>
      </trkpt>
      <trkpt lat="49.1462" lon="1.91873">
        <ele>92</ele>
        <time>2022-07-28T11:53:04Z</time>
      </trkpt>
      <trkpt lat="49.14607" lon="1.919">
        <ele>92</ele>
        <time>2022-07-28T11:53:33Z</time>
      </trkpt>
      <trkpt lat="49.14565" lon="1.92007">
        <ele>92</ele>
        <time>2022-07-28T11:55:22Z</time>
      </trkpt>
      <trkpt lat="49.14548" lon="1.92059">
        <ele>92</ele>
        <time>2022-07-28T11:56:13Z</time>
      </trkpt>
      <trkpt lat="49.14531" lon="1.92097">
        <ele>93</ele>
        <time>2022-07-28T11:56:53Z</time>
      </trkpt>
      <trkpt lat="49.14492" lon="1.92168">
        <ele>93</ele>
        <time>2022-07-28T11:58:14Z</time>
      </trkpt>
      <trkpt lat="49.14481" lon="1.92181">
        <ele>93</ele>
        <time>2022-07-28T11:58:33Z</time>
      </trkpt>
      <trkpt lat="49.14466" lon="1.92209">
        <ele>93</ele>
        <time>2022-07-28T11:59:04Z</time>
      </trkpt>
      <trkpt lat="49.14438" lon="1.92251">
        <ele>93</ele>
        <time>2022-07-28T11:59:57Z</time>
      </trkpt>
      <trkpt lat="49.14415" lon="1.92293">
        <ele>93</ele>
        <time>2022-07-28T12:00:45Z</time>
      </trkpt>
      <trkpt lat="49.14398" lon="1.92316">
        <ele>93</ele>
        <time>2022-07-28T12:01:15Z</time>
      </trkpt>
      <trkpt lat="49.14375" lon="1.92354">
        <ele>93</ele>
        <time>2022-07-28T12:02:00Z</time>
      </trkpt>
      <trkpt lat="49.14358" lon="1.92393">
        <ele>93</ele>
        <time>2022-07-28T12:02:41Z</time>
      </trkpt>
      <trkpt lat="49.14261" lon="1.92573">
        <ele>93</ele>
        <time>2022-07-28T12:06:05Z</time>
      </trkpt>
      <trkpt lat="49.14258" lon="1.92586">
        <ele>93</ele>
        <time>2022-07-28T12:06:17Z</time>
      </trkpt>
      <trkpt lat="49.14214" lon="1.92674">
        <ele>93</ele>
        <time>2022-07-28T12:07:53Z</time>
      </trkpt>
      <trkpt lat="49.14195" lon="1.92719">
        <ele>93</ele>
        <time>2022-07-28T12:08:40Z</time>
      </trkpt>
      <trkpt lat="49.1418" lon="1.92744">
        <ele>93</ele>
        <time>2022-07-28T12:09:10Z</time>
      </trkpt>
      <trkpt lat="49.14172" lon="1.92764">
        <ele>93</ele>
        <time>2022-07-28T12:09:30Z</time>
      </trkpt>
      <trkpt lat="49.14162" lon="1.92779">
        <ele>93</ele>
        <time>2022-07-28T12:09:49Z</time>
      </trkpt>
      <trkpt lat="49.14155" lon="1.92798">
        <ele>92</ele>
        <time>2022-07-28T12:10:08Z</time>
      </trkpt>
      <trkpt lat="49.14133" lon="1.9284">
        <ele>92</ele>
        <time>2022-07-28T12:10:55Z</time>
      </trkpt>
      <trkpt lat="49.14049" lon="1.92956">
        <ele>90</ele>
        <time>2022-07-28T12:13:26Z</time>
      </trkpt>
      <trkpt lat="49.14009" lon="1.93021">
        <ele>88</ele>
        <time>2022-07-28T12:14:44Z</time>
      </trkpt>
      <trkpt lat="49.14002" lon="1.93043">
        <ele>88</ele>
        <time>2022-07-28T12:15:05Z</time>
      </trkpt>
      <trkpt lat="49.13969" lon="1.93112">
        <ele>87</ele>
        <time>2022-07-28T12:16:20Z</time>
      </trkpt>
      <trkpt lat="49.13944" lon="1.93155">
        <ele>85</ele>
        <time>2022-07-28T12:17:10Z</time>
      </trkpt>
      <trkpt lat="49.13881" lon="1.9328">
        <ele>85</ele>
        <time>2022-07-28T12:19:28Z</time>
      </trkpt>
      <trkpt lat="49.13874" lon="1.93315">
        <ele>85</ele>
        <time>2022-07-28T12:20:00Z</time>
      </trkpt>
      <trkpt lat="49.13867" lon="1.93333">
        <ele>86</ele>
        <time>2022-07-28T12:20:18Z</time>
      </trkpt>
      <trkpt lat="49.13864" lon="1.93352">
        <ele>85</ele>
        <time>2022-07-28T12:20:35Z</time>
      </trkpt>
      <trkpt lat="49.13857" lon="1.93373">
        <ele>85</ele>
        <time>2022-07-28T12:20:56Z</time>
      </trkpt>
      <trkpt lat="49.13852" lon="1.93386">
        <ele>85</ele>
        <time>2022-07-28T12:21:09Z</time>
      </trkpt>
      <trkpt lat="49.1385" lon="1.93383">
        <ele>85</ele>
        <time>2022-07-28T12:21:13Z</time>
      </trkpt>
      <trkpt lat="49.13843" lon="1.93393">
        <ele>86</ele>
        <time>2022-07-28T12:21:25Z</time>
      </trkpt>
      <trkpt lat="49.1382" lon="1.93452">
        <ele>84</ele>
        <time>2022-07-28T12:22:25Z</time>
      </trkpt>
      <trkpt lat="49.13781" lon="1.93509">
        <ele>82</ele>
        <time>2022-07-28T12:23:37Z</time>
      </trkpt>
      <trkpt lat="49.13768" lon="1.93538">
        <ele>81</ele>
        <time>2022-07-28T12:24:08Z</time>
      </trkpt>
      <trkpt lat="49.13741" lon="1.93583">
        <ele>80</ele>
        <time>2022-07-28T12:25:01Z</time>
      </trkpt>
      <trkpt lat="49.13716" lon="1.93635">
        <ele>77</ele>
        <time>2022-07-28T12:25:58Z</time>
      </trkpt>
      <trkpt lat="49.13695" lon="1.9367">
        <ele>77</ele>
        <time>2022-07-28T12:26:39Z</time>
      </trkpt>
      <trkpt lat="49.13685" lon="1.9368">
        <ele>77</ele>
        <time>2022-07-28T12:26:55Z</time>
      </trkpt>
      <trkpt lat="49.13676" lon="1.93694">
        <ele>77</ele>
        <time>2022-07-28T12:27:12Z</time>
      </trkpt>
      <trkpt lat="49.13674" lon="1.93685">
        <ele>78</ele>
        <time>2022-07-28T12:27:20Z</time>
      </trkpt>
      <trkpt lat="49.13661" lon="1.93753">
        <ele>74</ele>
        <time>2022-07-28T12:28:22Z</time>
      </trkpt>
      <trkpt lat="49.1366" lon="1.93783">
        <ele>73</ele>
        <time>2022-07-28T12:28:49Z</time>
      </trkpt>
      <trkpt lat="49.13648" lon="1.93831">
        <ele>72</ele>
        <time>2022-07-28T12:29:33Z</time>
      </trkpt>
      <trkpt lat="49.13622" lon="1.93976">
        <ele>65</ele>
        <time>2022-07-28T12:31:45Z</time>
      </trkpt>
      <trkpt lat="49.13614" lon="1.93991">
        <ele>65</ele>
        <time>2022-07-28T12:32:02Z</time>
      </trkpt>
      <trkpt lat="49.13567" lon="1.94031">
        <ele>66</ele>
        <time>2022-07-28T12:33:13Z</time>
      </trkpt>
      <trkpt lat="49.13549" lon="1.94042">
        <ele>67</ele>
        <time>2022-07-28T12:33:39Z</time>
      </trkpt>
      <trkpt lat="49.1354" lon="1.94062">
        <ele>66</ele>
        <time>2022-07-28T12:34:00Z</time>
      </trkpt>
      <trkpt lat="49.13495" lon="1.94114">
        <ele>65</ele>
        <time>2022-07-28T12:35:16Z</time>
      </trkpt>
      <trkpt lat="49.13475" lon="1.94126">
        <ele>65</ele>
        <time>2022-07-28T12:35:44Z</time>
      </trkpt>
      <trkpt lat="49.1346" lon="1.94145">
        <ele>65</ele>
        <time>2022-07-28T12:36:10Z</time>
      </trkpt>
      <trkpt lat="49.13442" lon="1.94157">
        <ele>65</ele>
        <time>2022-07-28T12:36:37Z</time>
      </trkpt>
      <trkpt lat="49.13424" lon="1.94176">
        <ele>65</ele>
        <time>2022-07-28T12:37:06Z</time>
      </trkpt>
      <trkpt lat="49.13401" lon="1.94193">
        <ele>65</ele>
        <time>2022-07-28T12:37:40Z</time>
      </trkpt>
      <trkpt lat="49.13384" lon="1.94215">
        <ele>65</ele>
        <time>2022-07-28T12:38:10Z</time>
      </trkpt>
      <trkpt lat="49.13367" lon="1.94231">
        <ele>64</ele>
        <time>2022-07-28T12:38:36Z</time>
      </trkpt>
      <trkpt lat="49.13356" lon="1.94253">
        <ele>63</ele>
        <time>2022-07-28T12:39:00Z</time>
      </trkpt>
      <trkpt lat="49.13341" lon="1.94274">
        <ele>63</ele>
        <time>2022-07-28T12:39:28Z</time>
      </trkpt>
      <trkpt lat="49.13322" lon="1.94289">
        <ele>63</ele>
        <time>2022-07-28T12:39:56Z</time>
      </trkpt>
      <trkpt lat="49.13318" lon="1.94296">
        <ele>63</ele>
        <time>2022-07-28T12:40:04Z</time>
      </trkpt>
      <trkpt lat="49.13306" lon="1.94305">
        <ele>63</ele>
        <time>2022-07-28T12:40:22Z</time>
      </trkpt>
      <trkpt lat="49.13292" lon="1.9432">
        <ele>62</ele>
        <time>2022-07-28T12:40:45Z</time>
      </trkpt>
      <trkpt lat="49.13281" lon="1.94327">
        <ele>61</ele>
        <time>2022-07-28T12:41:01Z</time>
      </trkpt>
      <trkpt lat="49.13265" lon="1.9433">
        <ele>61</ele>
        <time>2022-07-28T12:41:22Z</time>
      </trkpt>
      <trkpt lat="49.13258" lon="1.94338">
        <ele>61</ele>
        <time>2022-07-28T12:41:34Z</time>
      </trkpt>
      <trkpt lat="49.13249" lon="1.94356">
        <ele>60</ele>
        <time>2022-07-28T12:41:54Z</time>
      </trkpt>
      <trkpt lat="49.13218" lon="1.94381">
        <ele>62</ele>
        <time>2022-07-28T12:42:40Z</time>
      </trkpt>
      <trkpt lat="49.13186" lon="1.94393">
        <ele>64</ele>
        <time>2022-07-28T12:43:24Z</time>
      </trkpt>
      <trkpt lat="49.13167" lon="1.94403">
        <ele>65</ele>
        <time>2022-07-28T12:43:51Z</time>
      </trkpt>
      <trkpt lat="49.13142" lon="1.94428">
        <ele>65</ele>
        <time>2022-07-28T12:44:31Z</time>
      </trkpt>
      <trkpt lat="49.1312" lon="1.9444">
        <ele>66</ele>
        <time>2022-07-28T12:45:02Z</time>
      </trkpt>
      <trkpt lat="49.13109" lon="1.94452">
        <ele>67</ele>
        <time>2022-07-28T12:45:20Z</time>
      </trkpt>
      <trkpt lat="49.13104" lon="1.94454">
        <ele>67</ele>
        <time>2022-07-28T12:45:27Z</time>
      </trkpt>
      <trkpt lat="49.13098" lon="1.94465">
        <ele>67</ele>
        <time>2022-07-28T12:45:40Z</time>
      </trkpt>
      <trkpt lat="49.13091" lon="1.94472">
        <ele>67</ele>
        <time>2022-07-28T12:45:51Z</time>
      </trkpt>
      <trkpt lat="49.13084" lon="1.94474">
        <ele>68</ele>
        <time>2022-07-28T12:46:00Z</time>
      </trkpt>
      <trkpt lat="49.13074" lon="1.94487">
        <ele>67</ele>
        <time>2022-07-28T12:46:18Z</time>
      </trkpt>
      <trkpt lat="49.13065" lon="1.94491">
        <ele>67</ele>
        <time>2022-07-28T12:46:30Z</time>
      </trkpt>
      <trkpt lat="49.1306" lon="1.94503">
        <ele>67</ele>
        <time>2022-07-28T12:46:43Z</time>
      </trkpt>
      <trkpt lat="49.13055" lon="1.94504">
        <ele>67</ele>
        <time>2022-07-28T12:46:50Z</time>
      </trkpt>
      <trkpt lat="49.13044" lon="1.94515">
        <ele>67</ele>
        <time>2022-07-28T12:47:07Z</time>
      </trkpt>
      <trkpt lat="49.13036" lon="1.94534">
        <ele>66</ele>
        <time>2022-07-28T12:47:27Z</time>
      </trkpt>
      <trkpt lat="49.13026" lon="1.94544">
        <ele>66</ele>
        <time>2022-07-28T12:47:43Z</time>
      </trkpt>
      <trkpt lat="49.13015" lon="1.94568">
        <ele>65</ele>
        <time>2022-07-28T12:48:08Z</time>
      </trkpt>
      <trkpt lat="49.13004" lon="1.94601">
        <ele>65</ele>
        <time>2022-07-28T12:48:41Z</time>
      </trkpt>
      <trkpt lat="49.12991" lon="1.9462">
        <ele>65</ele>
        <time>2022-07-28T12:49:05Z</time>
      </trkpt>
      <trkpt lat="49.12977" lon="1.94632">
        <ele>65</ele>
        <time>2022-07-28T12:49:26Z</time>
      </trkpt>
      <trkpt lat="49.12936" lon="1.94648">
        <ele>65</ele>
        <time>2022-07-28T12:50:23Z</time>
      </trkpt>
      <trkpt lat="49.12921" lon="1.94661">
        <ele>64</ele>
        <time>2022-07-28T12:50:46Z</time>
      </trkpt>
      <trkpt lat="49.12884" lon="1.94681">
        <ele>62</ele>
        <time>2022-07-28T12:51:38Z</time>
      </trkpt>
      <trkpt lat="49.12877" lon="1.94679">
        <ele>62</ele>
        <time>2022-07-28T12:51:48Z</time>
      </trkpt>
      <trkpt lat="49.12869" lon="1.94682">
        <ele>62</ele>
        <time>2022-07-28T12:51:59Z</time>
      </trkpt>
      <trkpt lat="49.12862" lon="1.94686">
        <ele>62</ele>
        <time>2022-07-28T12:52:08Z</time>
      </trkpt>
      <trkpt lat="49.12852" lon="1.94701">
        <ele>61</ele>
        <time>2022-07-28T12:52:27Z</time>
      </trkpt>
      <trkpt lat="49.12842" lon="1.94707">
        <ele>61</ele>
        <time>2022-07-28T12:52:42Z</time>
      </trkpt>
      <trkpt lat="49.12834" lon="1.94698">
        <ele>61</ele>
        <time>2022-07-28T12:52:55Z</time>
      </trkpt>
      <trkpt lat="49.12818" lon="1.94686">
        <ele>61</ele>
        <time>2022-07-28T12:53:19Z</time>
      </trkpt>
      <trkpt lat="49.1281" lon="1.94685">
        <ele>61</ele>
        <time>2022-07-28T12:53:29Z</time>
      </trkpt>
      <trkpt lat="49.12771" lon="1.94669">
        <ele>60</ele>
        <time>2022-07-28T12:54:23Z</time>
      </trkpt>
      <trkpt lat="49.12733" lon="1.94671">
        <ele>60</ele>
        <time>2022-07-28T12:55:14Z</time>
      </trkpt>
      <trkpt lat="49.12716" lon="1.94668">
        <ele>61</ele>
        <time>2022-07-28T12:55:37Z</time>
      </trkpt>
      <trkpt lat="49.12696" lon="1.94671">
        <ele>62</ele>
        <time>2022-07-28T12:56:04Z</time>
      </trkpt>
      <trkpt lat="49.12682" lon="1.94678">
        <ele>62</ele>
        <time>2022-07-28T12:56:23Z</time>
      </trkpt>
      <trkpt lat="49.12661" lon="1.94678">
        <ele>63</ele>
        <time>2022-07-28T12:56:51Z</time>
      </trkpt>
      <trkpt lat="49.12634" lon="1.94686">
        <ele>63</ele>
        <time>2022-07-28T12:57:28Z</time>
      </trkpt>
      <trkpt lat="49.12627" lon="1.94686">
        <ele>63</ele>
        <time>2022-07-28T12:57:37Z</time>
      </trkpt>
      <trkpt lat="49.12605" lon="1.94695">
        <ele>63</ele>
        <time>2022-07-28T12:58:08Z</time>
      </trkpt>
      <trkpt lat="49.12594" lon="1.94707">
        <ele>63</ele>
        <time>2022-07-28T12:58:26Z</time>
      </trkpt>
      <trkpt lat="49.1258" lon="1.94714">
        <ele>63</ele>
        <time>2022-07-28T12:58:45Z</time>
      </trkpt>
      <trkpt lat="49.12543" lon="1.94714">
        <ele>63</ele>
        <time>2022-07-28T12:59:35Z</time>
      </trkpt>
      <trkpt lat="49.12532" lon="1.9472">
        <ele>63</ele>
        <time>2022-07-28T12:59:50Z</time>
      </trkpt>
      <trkpt lat="49.1253" lon="1.94719">
        <ele>63</ele>
        <time>2022-07-28T12:59:53Z</time>
      </trkpt>
      <trkpt lat="49.1253" lon="1.94713">
        <ele>63</ele>
        <time>2022-07-28T12:59:58Z</time>
      </trkpt>
      <trkpt lat="49.1253" lon="1.94717">
        <ele>63</ele>
        <time>2022-07-28T13:00:02Z</time>
      </trkpt>
      <trkpt lat="49.12531" lon="1.94715">
        <ele>63</ele>
        <time>2022-07-28T13:00:04Z</time>
      </trkpt>
      <trkpt lat="49.12524" lon="1.94726">
        <ele>62</ele>
        <time>2022-07-28T13:00:17Z</time>
      </trkpt>
      <trkpt lat="49.12494" lon="1.94736">
        <ele>62</ele>
        <time>2022-07-28T13:00:58Z</time>
      </trkpt>
      <trkpt lat="49.12481" lon="1.94751">
        <ele>61</ele>
        <time>2022-07-28T13:01:20Z</time>
      </trkpt>
      <trkpt lat="49.12475" lon="1.94763">
        <ele>60</ele>
        <time>2022-07-28T13:01:33Z</time>
      </trkpt>
      <trkpt lat="49.12453" lon="1.94775">
        <ele>60</ele>
        <time>2022-07-28T13:02:05Z</time>
      </trkpt>
      <trkpt lat="49.12428" lon="1.94802">
        <ele>58</ele>
        <time>2022-07-28T13:02:45Z</time>
      </trkpt>
      <trkpt lat="49.12423" lon="1.94812">
        <ele>57</ele>
        <time>2022-07-28T13:02:56Z</time>
      </trkpt>
      <trkpt lat="49.12421" lon="1.94824">
        <ele>56</ele>
        <time>2022-07-28T13:03:07Z</time>
      </trkpt>
      <trkpt lat="49.12426" lon="1.94843">
        <ele>55</ele>
        <time>2022-07-28T13:03:25Z</time>
      </trkpt>
      <trkpt lat="49.12425" lon="1.94852">
        <ele>55</ele>
        <time>2022-07-28T13:03:33Z</time>
      </trkpt>
      <trkpt lat="49.12419" lon="1.94877">
        <ele>54</ele>
        <time>2022-07-28T13:03:56Z</time>
      </trkpt>
      <trkpt lat="49.12411" lon="1.94891">
        <ele>54</ele>
        <time>2022-07-28T13:04:13Z</time>
      </trkpt>
      <trkpt lat="49.12428" lon="1.9491">
        <ele>53</ele>
        <time>2022-07-28T13:04:41Z</time>
      </trkpt>
      <trkpt lat="49.12417" lon="1.94924">
        <ele>53</ele>
        <time>2022-07-28T13:05:00Z</time>
      </trkpt>
      <trkpt lat="49.12418" lon="1.94932">
        <ele>53</ele>
        <time>2022-07-28T13:05:07Z</time>
      </trkpt>
      <trkpt lat="49.12419" lon="1.94926">
        <ele>53</ele>
        <time>2022-07-28T13:05:12Z</time>
      </trkpt>
      <trkpt lat="49.12415" lon="1.9493">
        <ele>53</ele>
        <time>2022-07-28T13:05:19Z</time>
      </trkpt>
      <trkpt lat="49.1242" lon="1.94928">
        <ele>53</ele>
        <time>2022-07-28T13:05:26Z</time>
      </trkpt>
      <trkpt lat="49.12418" lon="1.94934">
        <ele>53</ele>
        <time>2022-07-28T13:05:31Z</time>
      </trkpt>
      <trkpt lat="49.12416" lon="1.94933">
        <ele>53</ele>
        <time>2022-07-28T13:05:34Z</time>
      </trkpt>
      <trkpt lat="49.12418" lon="1.94932">
        <ele>53</ele>
        <time>2022-07-28T13:05:37Z</time>
      </trkpt>
      <trkpt lat="49.12421" lon="1.94936">
        <ele>53</ele>
        <time>2022-07-28T13:05:42Z</time>
      </trkpt>
      <trkpt lat="49.12417" lon="1.94934">
        <ele>53</ele>
        <time>2022-07-28T13:05:48Z</time>
      </trkpt>
      <trkpt lat="49.12417" lon="1.94936">
        <ele>53</ele>
        <time>2022-07-28T13:05:50Z</time>
      </trkpt>
      <trkpt lat="49.12416" lon="1.94933">
        <ele>53</ele>
        <time>2022-07-28T13:05:53Z</time>
      </trkpt>
      <trkpt lat="49.12413" lon="1.94934">
        <ele>53</ele>
        <time>2022-07-28T13:05:57Z</time>
      </trkpt>
      <trkpt lat="49.1242" lon="1.94931">
        <ele>53</ele>
        <time>2022-07-28T13:06:06Z</time>
      </trkpt>
      <trkpt lat="49.12421" lon="1.94935">
        <ele>53</ele>
        <time>2022-07-28T13:06:10Z</time>
      </trkpt>
      <trkpt lat="49.12417" lon="1.94932">
        <ele>53</ele>
        <time>2022-07-28T13:06:16Z</time>
      </trkpt>
      <trkpt lat="49.12421" lon="1.94932">
        <ele>53</ele>
        <time>2022-07-28T13:06:21Z</time>
      </trkpt>
      <trkpt lat="49.12422" lon="1.94929">
        <ele>53</ele>
        <time>2022-07-28T13:06:24Z</time>
      </trkpt>
      <trkpt lat="49.12414" lon="1.94934">
        <ele>53</ele>
        <time>2022-07-28T13:06:36Z</time>
      </trkpt>
      <trkpt lat="49.12418" lon="1.94932">
        <ele>53</ele>
        <time>2022-07-28T13:06:42Z</time>
      </trkpt>
      <trkpt lat="49.12417" lon="1.94936">
        <ele>53</ele>
        <time>2022-07-28T13:06:45Z</time>
      </trkpt>
      <trkpt lat="49.12413" lon="1.94939">
        <ele>53</ele>
        <time>2022-07-28T13:06:51Z</time>
      </trkpt>
      <trkpt lat="49.12412" lon="1.94936">
        <ele>53</ele>
        <time>2022-07-28T13:06:54Z</time>
      </trkpt>
      <trkpt lat="49.12418" lon="1.94936">
        <ele>53</ele>
        <time>2022-07-28T13:07:02Z</time>
      </trkpt>
      <trkpt lat="49.12417" lon="1.9493">
        <ele>53</ele>
        <time>2022-07-28T13:07:08Z</time>
      </trkpt>
      <trkpt lat="49.12425" lon="1.94934">
        <ele>53</ele>
        <time>2022-07-28T13:07:19Z</time>
      </trkpt>
      <trkpt lat="49.12422" lon="1.9493">
        <ele>53</ele>
        <time>2022-07-28T13:07:24Z</time>
      </trkpt>
      <trkpt lat="49.12422" lon="1.94934">
        <ele>53</ele>
        <time>2022-07-28T13:07:28Z</time>
      </trkpt>
      <trkpt lat="49.12424" lon="1.94932">
        <ele>53</ele>
        <time>2022-07-28T13:07:31Z</time>
      </trkpt>
      <trkpt lat="49.12428" lon="1.94933">
        <ele>53</ele>
        <time>2022-07-28T13:07:36Z</time>
      </trkpt>
      <trkpt lat="49.12425" lon="1.94931">
        <ele>53</ele>
        <time>2022-07-28T13:07:41Z</time>
      </trkpt>
      <trkpt lat="49.12434" lon="1.94933">
        <ele>53</ele>
        <time>2022-07-28T13:07:53Z</time>
      </trkpt>
      <trkpt lat="49.12425" lon="1.94932">
        <ele>53</ele>
        <time>2022-07-28T13:08:05Z</time>
      </trkpt>
      <trkpt lat="49.12425" lon="1.94929">
        <ele>53</ele>
        <time>2022-07-28T13:08:07Z</time>
      </trkpt>
      <trkpt lat="49.12425" lon="1.94933">
        <ele>53</ele>
        <time>2022-07-28T13:08:11Z</time>
      </trkpt>
      <trkpt lat="49.12426" lon="1.94921">
        <ele>53</ele>
        <time>2022-07-28T13:08:21Z</time>
      </trkpt>
      <trkpt lat="49.12424" lon="1.94922">
        <ele>53</ele>
        <time>2022-07-28T13:08:24Z</time>
      </trkpt>
      <trkpt lat="49.12423" lon="1.94929">
        <ele>53</ele>
        <time>2022-07-28T13:08:31Z</time>
      </trkpt>
      <trkpt lat="49.12426" lon="1.94932">
        <ele>53</ele>
        <time>2022-07-28T13:08:35Z</time>
      </trkpt>
      <trkpt lat="49.12428" lon="1.94928">
        <ele>53</ele>
        <time>2022-07-28T13:08:40Z</time>
      </trkpt>
      <trkpt lat="49.12424" lon="1.94924">
        <ele>53</ele>
        <time>2022-07-28T13:08:46Z</time>
      </trkpt>
      <trkpt lat="49.12424" lon="1.94928">
        <ele>53</ele>
        <time>2022-07-28T13:08:50Z</time>
      </trkpt>
      <trkpt lat="49.1242" lon="1.9493">
        <ele>53</ele>
        <time>2022-07-28T13:08:55Z</time>
      </trkpt>
      <trkpt lat="49.12412" lon="1.94923">
        <ele>53</ele>
        <time>2022-07-28T13:09:08Z</time>
      </trkpt>
      <trkpt lat="49.12417" lon="1.9493">
        <ele>53</ele>
        <time>2022-07-28T13:09:17Z</time>
      </trkpt>
      <trkpt lat="49.12411" lon="1.94929">
        <ele>53</ele>
        <time>2022-07-28T13:09:25Z</time>
      </trkpt>
      <trkpt lat="49.12417" lon="1.94931">
        <ele>53</ele>
        <time>2022-07-28T13:09:33Z</time>
      </trkpt>
      <trkpt lat="49.12423" lon="1.94939">
        <ele>53</ele>
        <time>2022-07-28T13:09:43Z</time>
      </trkpt>
      <trkpt lat="49.12413" lon="1.94933">
        <ele>53</ele>
        <time>2022-07-28T13:09:58Z</time>
      </trkpt>
      <trkpt lat="49.12408" lon="1.94934">
        <ele>54</ele>
        <time>2022-07-28T13:10:05Z</time>
      </trkpt>
      <trkpt lat="49.12407" lon="1.94938">
        <ele>54</ele>
        <time>2022-07-28T13:10:08Z</time>
      </trkpt>
      <trkpt lat="49.12401" lon="1.94937">
        <ele>54</ele>
        <time>2022-07-28T13:10:16Z</time>
      </trkpt>
      <trkpt lat="49.12407" lon="1.94941">
        <ele>54</ele>
        <time>2022-07-28T13:10:25Z</time>
      </trkpt>
      <trkpt lat="49.12424" lon="1.94934">
        <ele>53</ele>
        <time>2022-07-28T13:10:49Z</time>
      </trkpt>
      <trkpt lat="49.12416" lon="1.94931">
        <ele>53</ele>
        <time>2022-07-28T13:11:00Z</time>
      </trkpt>
      <trkpt lat="49.12415" lon="1.94928">
        <ele>53</ele>
        <time>2022-07-28T13:11:02Z</time>
      </trkpt>
      <trkpt lat="49.12418" lon="1.94929">
        <ele>53</ele>
        <time>2022-07-28T13:11:07Z</time>
      </trkpt>
      <trkpt lat="49.12416" lon="1.94932">
        <ele>53</ele>
        <time>2022-07-28T13:11:10Z</time>
      </trkpt>
      <trkpt lat="49.12419" lon="1.9493">
        <ele>53</ele>
        <time>2022-07-28T13:11:15Z</time>
      </trkpt>
      <trkpt lat="49.1242" lon="1.94932">
        <ele>53</ele>
        <time>2022-07-28T13:11:17Z</time>
      </trkpt>
      <trkpt lat="49.12415" lon="1.94933">
        <ele>53</ele>
        <time>2022-07-28T13:11:24Z</time>
      </trkpt>
      <trkpt lat="49.12413" lon="1.94926">
        <ele>53</ele>
        <time>2022-07-28T13:11:30Z</time>
      </trkpt>
      <trkpt lat="49.12413" lon="1.94934">
        <ele>53</ele>
        <time>2022-07-28T13:11:37Z</time>
      </trkpt>
      <trkpt lat="49.12415" lon="1.94929">
        <ele>53</ele>
        <time>2022-07-28T13:11:42Z</time>
      </trkpt>
      <trkpt lat="49.12411" lon="1.94933">
        <ele>53</ele>
        <time>2022-07-28T13:11:49Z</time>
      </trkpt>
      <trkpt lat="49.12411" lon="1.94923">
        <ele>53</ele>
        <time>2022-07-28T13:11:57Z</time>
      </trkpt>
      <trkpt lat="49.12409" lon="1.94924">
        <ele>53</ele>
        <time>2022-07-28T13:12:00Z</time>
      </trkpt>
      <trkpt lat="49.12415" lon="1.94925">
        <ele>53</ele>
        <time>2022-07-28T13:12:08Z</time>
      </trkpt>
      <trkpt lat="49.12415" lon="1.94922">
        <ele>53</ele>
        <time>2022-07-28T13:12:11Z</time>
      </trkpt>
      <trkpt lat="49.12419" lon="1.94933">
        <ele>53</ele>
        <time>2022-07-28T13:12:22Z</time>
      </trkpt>
      <trkpt lat="49.12417" lon="1.94934">
        <ele>53</ele>
        <time>2022-07-28T13:12:25Z</time>
      </trkpt>
      <trkpt lat="49.12416" lon="1.94929">
        <ele>53</ele>
        <time>2022-07-28T13:12:29Z</time>
      </trkpt>
      <trkpt lat="49.12414" lon="1.94934">
        <ele>53</ele>
        <time>2022-07-28T13:12:34Z</time>
      </trkpt>
      <trkpt lat="49.12416" lon="1.94937">
        <ele>53</ele>
        <time>2022-07-28T13:12:38Z</time>
      </trkpt>
      <trkpt lat="49.12418" lon="1.94929">
        <ele>53</ele>
        <time>2022-07-28T13:12:46Z</time>
      </trkpt>
      <trkpt lat="49.12416" lon="1.94934">
        <ele>53</ele>
        <time>2022-07-28T13:12:51Z</time>
      </trkpt>
      <trkpt lat="49.12415" lon="1.9493">
        <ele>53</ele>
        <time>2022-07-28T13:12:55Z</time>
      </trkpt>
      <trkpt lat="49.12414" lon="1.94932">
        <ele>53</ele>
        <time>2022-07-28T13:12:57Z</time>
      </trkpt>
      <trkpt lat="49.12413" lon="1.9493">
        <ele>53</ele>
        <time>2022-07-28T13:12:59Z</time>
      </trkpt>
      <trkpt lat="49.12412" lon="1.94934">
        <ele>53</ele>
        <time>2022-07-28T13:13:03Z</time>
      </trkpt>
      <trkpt lat="49.12417" lon="1.9493">
        <ele>53</ele>
        <time>2022-07-28T13:13:10Z</time>
      </trkpt>
      <trkpt lat="49.12414" lon="1.94925">
        <ele>53</ele>
        <time>2022-07-28T13:13:16Z</time>
      </trkpt>
      <trkpt lat="49.12415" lon="1.94921">
        <ele>53</ele>
        <time>2022-07-28T13:13:20Z</time>
      </trkpt>
      <trkpt lat="49.12415" lon="1.94927">
        <ele>53</ele>
        <time>2022-07-28T13:13:25Z</time>
      </trkpt>
      <trkpt lat="49.12417" lon="1.94924">
        <ele>53</ele>
        <time>2022-07-28T13:13:29Z</time>
      </trkpt>
      <trkpt lat="49.12413" lon="1.94928">
        <ele>53</ele>
        <time>2022-07-28T13:13:35Z</time>
      </trkpt>
      <trkpt lat="49.12413" lon="1.94926">
        <ele>53</ele>
        <time>2022-07-28T13:13:37Z</time>
      </trkpt>
      <trkpt lat="49.12414" lon="1.94932">
        <ele>53</ele>
        <time>2022-07-28T13:13:42Z</time>
      </trkpt>
      <trkpt lat="49.12406" lon="1.94937">
        <ele>54</ele>
        <time>2022-07-28T13:13:54Z</time>
      </trkpt>
      <trkpt lat="49.12408" lon="1.94943">
        <ele>54</ele>
        <time>2022-07-28T13:14:00Z</time>
      </trkpt>
      <trkpt lat="49.12416" lon="1.9494">
        <ele>53</ele>
        <time>2022-07-28T13:14:11Z</time>
      </trkpt>
      <trkpt lat="49.12418" lon="1.94936">
        <ele>53</ele>
        <time>2022-07-28T13:14:15Z</time>
      </trkpt>
      <trkpt lat="49.12412" lon="1.94929">
        <ele>53</ele>
        <time>2022-07-28T13:14:25Z</time>
      </trkpt>
      <trkpt lat="49.12411" lon="1.94936">
        <ele>53</ele>
        <time>2022-07-28T13:14:31Z</time>
      </trkpt>
      <trkpt lat="49.12409" lon="1.94935">
        <ele>54</ele>
        <time>2022-07-28T13:14:34Z</time>
      </trkpt>
      <trkpt lat="49.12413" lon="1.94927">
        <ele>53</ele>
        <time>2022-07-28T13:14:43Z</time>
      </trkpt>
      <trkpt lat="49.12411" lon="1.94924">
        <ele>53</ele>
        <time>2022-07-28T13:14:47Z</time>
      </trkpt>
      <trkpt lat="49.12416" lon="1.94932">
        <ele>53</ele>
        <time>2022-07-28T13:14:57Z</time>
      </trkpt>
      <trkpt lat="49.12434" lon="1.94922">
        <ele>53</ele>
        <time>2022-07-28T13:15:22Z</time>
      </trkpt>
      <trkpt lat="49.1244" lon="1.94925">
        <ele>53</ele>
        <time>2022-07-28T13:15:30Z</time>
      </trkpt>
      <trkpt lat="49.12453" lon="1.94935">
        <ele>53</ele>
        <time>2022-07-28T13:15:50Z</time>
      </trkpt>
      <trkpt lat="49.1246" lon="1.94945">
        <ele>53</ele>
        <time>2022-07-28T13:16:03Z</time>
      </trkpt>
      <trkpt lat="49.12474" lon="1.94952">
        <ele>52</ele>
        <time>2022-07-28T13:16:22Z</time>
      </trkpt>
      <trkpt lat="49.12493" lon="1.94979">
        <ele>52</ele>
        <time>2022-07-28T13:16:57Z</time>
      </trkpt>
      <trkpt lat="49.12514" lon="1.94996">
        <ele>53</ele>
        <time>2022-07-28T13:17:29Z</time>
      </trkpt>
      <trkpt lat="49.12518" lon="1.94996">
        <ele>53</ele>
        <time>2022-07-28T13:17:34Z</time>
      </trkpt>
      <trkpt lat="49.12542" lon="1.95021">
        <ele>55</ele>
        <time>2022-07-28T13:18:13Z</time>
      </trkpt>
      <trkpt lat="49.12552" lon="1.95044">
        <ele>57</ele>
        <time>2022-07-28T13:18:37Z</time>
      </trkpt>
      <trkpt lat="49.12546" lon="1.9508">
        <ele>58</ele>
        <time>2022-07-28T13:19:09Z</time>
      </trkpt>
      <trkpt lat="49.12551" lon="1.95114">
        <ele>60</ele>
        <time>2022-07-28T13:19:40Z</time>
      </trkpt>
      <trkpt lat="49.12547" lon="1.9513">
        <ele>61</ele>
        <time>2022-07-28T13:19:55Z</time>
      </trkpt>
      <trkpt lat="49.1255" lon="1.95149">
        <ele>62</ele>
        <time>2022-07-28T13:20:12Z</time>
      </trkpt>
      <trkpt lat="49.12549" lon="1.95157">
        <ele>62</ele>
        <time>2022-07-28T13:20:19Z</time>
      </trkpt>
      <trkpt lat="49.12558" lon="1.95179">
        <ele>65</ele>
        <time>2022-07-28T13:20:42Z</time>
      </trkpt>
      <trkpt lat="49.12572" lon="1.95182">
        <ele>67</ele>
        <time>2022-07-28T13:21:00Z</time>
      </trkpt>
      <trkpt lat="49.12575" lon="1.9518">
        <ele>67</ele>
        <time>2022-07-28T13:21:05Z</time>
      </trkpt>
      <trkpt lat="49.12579" lon="1.95183">
        <ele>68</ele>
        <time>2022-07-28T13:21:11Z</time>
      </trkpt>
      <trkpt lat="49.12579" lon="1.95201">
        <ele>69</ele>
        <time>2022-07-28T13:21:26Z</time>
      </trkpt>
      <trkpt lat="49.12583" lon="1.9522">
        <ele>71</ele>
        <time>2022-07-28T13:21:44Z</time>
      </trkpt>
      <trkpt lat="49.12582" lon="1.95243">
        <ele>72</ele>
        <time>2022-07-28T13:22:04Z</time>
      </trkpt>
      <trkpt lat="49.12566" lon="1.95293">
        <ele>74</ele>
        <time>2022-07-28T13:22:53Z</time>
      </trkpt>
      <trkpt lat="49.12564" lon="1.95317">
        <ele>75</ele>
        <time>2022-07-28T13:23:14Z</time>
      </trkpt>
      <trkpt lat="49.12565" lon="1.95343">
        <ele>77</ele>
        <time>2022-07-28T13:23:37Z</time>
      </trkpt>
      <trkpt lat="49.12575" lon="1.95369">
        <ele>80</ele>
        <time>2022-07-28T13:24:03Z</time>
      </trkpt>
      <trkpt lat="49.12573" lon="1.95411">
        <ele>82</ele>
        <time>2022-07-28T13:24:40Z</time>
      </trkpt>
      <trkpt lat="49.12588" lon="1.95473">
        <ele>85</ele>
        <time>2022-07-28T13:25:37Z</time>
      </trkpt>
      <trkpt lat="49.12598" lon="1.95484">
        <ele>86</ele>
        <time>2022-07-28T13:25:54Z</time>
      </trkpt>
      <trkpt lat="49.12601" lon="1.95493">
        <ele>87</ele>
        <time>2022-07-28T13:26:03Z</time>
      </trkpt>
      <trkpt lat="49.12619" lon="1.95505">
        <ele>88</ele>
        <time>2022-07-28T13:26:29Z</time>
      </trkpt>
      <trkpt lat="49.12633" lon="1.95524">
        <ele>89</ele>
        <time>2022-07-28T13:26:54Z</time>
      </trkpt>
      <trkpt lat="49.12672" lon="1.95559">
        <ele>91</ele>
        <time>2022-07-28T13:27:54Z</time>
      </trkpt>
      <trkpt lat="49.1268" lon="1.95563">
        <ele>91</ele>
        <time>2022-07-28T13:28:05Z</time>
      </trkpt>
      <trkpt lat="49.12703" lon="1.95568">
        <ele>92</ele>
        <time>2022-07-28T13:28:36Z</time>
      </trkpt>
      <trkpt lat="49.12716" lon="1.95575">
        <ele>92</ele>
        <time>2022-07-28T13:28:55Z</time>
      </trkpt>
      <trkpt lat="49.12729" lon="1.95567">
        <ele>93</ele>
        <time>2022-07-28T13:29:13Z</time>
      </trkpt>
      <trkpt lat="49.12767" lon="1.95563">
        <ele>94</ele>
        <time>2022-07-28T13:30:04Z</time>
      </trkpt>
      <trkpt lat="49.12801" lon="1.95572">
        <ele>95</ele>
        <time>2022-07-28T13:30:50Z</time>
      </trkpt>
      <trkpt lat="49.12807" lon="1.95577">
        <ele>95</ele>
        <time>2022-07-28T13:30:59Z</time>
      </trkpt>
      <trkpt lat="49.12813" lon="1.95585">
        <ele>95</ele>
        <time>2022-07-28T13:31:10Z</time>
      </trkpt>
      <trkpt lat="49.12834" lon="1.95633">
        <ele>95</ele>
        <time>2022-07-28T13:32:01Z</time>
      </trkpt>
      <trkpt lat="49.12838" lon="1.95653">
        <ele>95</ele>
        <time>2022-07-28T13:32:19Z</time>
      </trkpt>
      <trkpt lat="49.12854" lon="1.95688">
        <ele>95</ele>
        <time>2022-07-28T13:32:56Z</time>
      </trkpt>
      <trkpt lat="49.1287" lon="1.95738">
        <ele>96</ele>
        <time>2022-07-28T13:33:45Z</time>
      </trkpt>
      <trkpt lat="49.1289" lon="1.95765">
        <ele>96</ele>
        <time>2022-07-28T13:34:20Z</time>
      </trkpt>
      <trkpt lat="49.12907" lon="1.95798">
        <ele>96</ele>
        <time>2022-07-28T13:34:57Z</time>
      </trkpt>
      <trkpt lat="49.12922" lon="1.95815">
        <ele>97</ele>
        <time>2022-07-28T13:35:22Z</time>
      </trkpt>
      <trkpt lat="49.12943" lon="1.95855">
        <ele>97</ele>
        <time>2022-07-28T13:36:07Z</time>
      </trkpt>
      <trkpt lat="49.12954" lon="1.9587">
        <ele>97</ele>
        <time>2022-07-28T13:36:26Z</time>
      </trkpt>
      <trkpt lat="49.12975" lon="1.9592">
        <ele>97</ele>
        <time>2022-07-28T13:37:18Z</time>
      </trkpt>
      <trkpt lat="49.12984" lon="1.95953">
        <ele>96</ele>
        <time>2022-07-28T13:37:49Z</time>
      </trkpt>
      <trkpt lat="49.12996" lon="1.95969">
        <ele>96</ele>
        <time>2022-07-28T13:38:11Z</time>
      </trkpt>
      <trkpt lat="49.13017" lon="1.9601">
        <ele>96</ele>
        <time>2022-07-28T13:38:56Z</time>
      </trkpt>
      <trkpt lat="49.13028" lon="1.96022">
        <ele>96</ele>
        <time>2022-07-28T13:39:14Z</time>
      </trkpt>
      <trkpt lat="49.13034" lon="1.96038">
        <ele>96</ele>
        <time>2022-07-28T13:39:30Z</time>
      </trkpt>
      <trkpt lat="49.1304" lon="1.96039">
        <ele>96</ele>
        <time>2022-07-28T13:39:38Z</time>
      </trkpt>
      <trkpt lat="49.13043" lon="1.96052">
        <ele>96</ele>
        <time>2022-07-28T13:39:50Z</time>
      </trkpt>
      <trkpt lat="49.13043" lon="1.9604">
        <ele>96</ele>
        <time>2022-07-28T13:40:01Z</time>
      </trkpt>
      <trkpt lat="49.13048" lon="1.96029">
        <ele>96</ele>
        <time>2022-07-28T13:40:13Z</time>
      </trkpt>
      <trkpt lat="49.13086" lon="1.95982">
        <ele>98</ele>
        <time>2022-07-28T13:41:18Z</time>
      </trkpt>
      <trkpt lat="49.13099" lon="1.95956">
        <ele>99</ele>
        <time>2022-07-28T13:41:46Z</time>
      </trkpt>
      <trkpt lat="49.13106" lon="1.95951">
        <ele>99</ele>
        <time>2022-07-28T13:41:57Z</time>
      </trkpt>
      <trkpt lat="49.13116" lon="1.95932">
        <ele>100</ele>
        <time>2022-07-28T13:42:18Z</time>
      </trkpt>
      <trkpt lat="49.13154" lon="1.95875">
        <ele>101</ele>
        <time>2022-07-28T13:43:29Z</time>
      </trkpt>
      <trkpt lat="49.13162" lon="1.95868">
        <ele>101</ele>
        <time>2022-07-28T13:43:41Z</time>
      </trkpt>
      <trkpt lat="49.13183" lon="1.95841">
        <ele>101</ele>
        <time>2022-07-28T13:44:18Z</time>
      </trkpt>
      <trkpt lat="49.13212" lon="1.9577">
        <ele>101</ele>
        <time>2022-07-28T13:45:31Z</time>
      </trkpt>
      <trkpt lat="49.13213" lon="1.95758">
        <ele>101</ele>
        <time>2022-07-28T13:45:42Z</time>
      </trkpt>
      <trkpt lat="49.13232" lon="1.95694">
        <ele>101</ele>
        <time>2022-07-28T13:46:43Z</time>
      </trkpt>
      <trkpt lat="49.13238" lon="1.95659">
        <ele>101</ele>
        <time>2022-07-28T13:47:15Z</time>
      </trkpt>
      <trkpt lat="49.13251" lon="1.95626">
        <ele>100</ele>
        <time>2022-07-28T13:47:48Z</time>
      </trkpt>
      <trkpt lat="49.13254" lon="1.95602">
        <ele>99</ele>
        <time>2022-07-28T13:48:10Z</time>
      </trkpt>
      <trkpt lat="49.13263" lon="1.95563">
        <ele>99</ele>
        <time>2022-07-28T13:48:46Z</time>
      </trkpt>
      <trkpt lat="49.13265" lon="1.9554">
        <ele>99</ele>
        <time>2022-07-28T13:49:06Z</time>
      </trkpt>
      <trkpt lat="49.13278" lon="1.95482">
        <ele>98</ele>
        <time>2022-07-28T13:49:59Z</time>
      </trkpt>
      <trkpt lat="49.13295" lon="1.95383">
        <ele>95</ele>
        <time>2022-07-28T13:51:29Z</time>
      </trkpt>
      <trkpt lat="49.13311" lon="1.95328">
        <ele>93</ele>
        <time>2022-07-28T13:52:21Z</time>
      </trkpt>
      <trkpt lat="49.13324" lon="1.953">
        <ele>92</ele>
        <time>2022-07-28T13:52:51Z</time>
      </trkpt>
      <trkpt lat="49.13334" lon="1.9529">
        <ele>92</ele>
        <time>2022-07-28T13:53:07Z</time>
      </trkpt>
      <trkpt lat="49.13334" lon="1.95283">
        <ele>92</ele>
        <time>2022-07-28T13:53:13Z</time>
      </trkpt>
      <trkpt lat="49.13337" lon="1.95278">
        <ele>92</ele>
        <time>2022-07-28T13:53:19Z</time>
      </trkpt>
      <trkpt lat="49.13335" lon="1.95272">
        <ele>91</ele>
        <time>2022-07-28T13:53:25Z</time>
      </trkpt>
      <trkpt lat="49.13328" lon="1.95269">
        <ele>91</ele>
        <time>2022-07-28T13:53:35Z</time>
      </trkpt>
      <trkpt lat="49.1333" lon="1.95271">
        <ele>91</ele>
        <time>2022-07-28T13:53:38Z</time>
      </trkpt>
      <trkpt lat="49.13335" lon="1.95267">
        <ele>91</ele>
        <time>2022-07-28T13:53:46Z</time>
      </trkpt>
      <trkpt lat="49.13346" lon="1.95222">
        <ele>90</ele>
        <time>2022-07-28T13:54:28Z</time>
      </trkpt>
      <trkpt lat="49.13361" lon="1.95191">
        <ele>90</ele>
        <time>2022-07-28T13:55:01Z</time>
      </trkpt>
      <trkpt lat="49.13374" lon="1.95094">
        <ele>89</ele>
        <time>2022-07-28T13:56:28Z</time>
      </trkpt>
      <trkpt lat="49.13373" lon="1.95046">
        <ele>87</ele>
        <time>2022-07-28T13:57:10Z</time>
      </trkpt>
      <trkpt lat="49.13376" lon="1.95023">
        <ele>86</ele>
        <time>2022-07-28T13:57:30Z</time>
      </trkpt>
      <trkpt lat="49.1338" lon="1.95011">
        <ele>86</ele>
        <time>2022-07-28T13:57:42Z</time>
      </trkpt>
      <trkpt lat="49.13399" lon="1.94979">
        <ele>85</ele>
        <time>2022-07-28T13:58:20Z</time>
      </trkpt>
      <trkpt lat="49.13436" lon="1.94879">
        <ele>83</ele>
        <time>2022-07-28T14:00:00Z</time>
      </trkpt>
      <trkpt lat="49.13448" lon="1.94862">
        <ele>83</ele>
        <time>2022-07-28T14:00:22Z</time>
      </trkpt>
      <trkpt lat="49.13463" lon="1.94822">
        <ele>81</ele>
        <time>2022-07-28T14:01:02Z</time>
      </trkpt>
      <trkpt lat="49.13474" lon="1.94804">
        <ele>80</ele>
        <time>2022-07-28T14:01:23Z</time>
      </trkpt>
      <trkpt lat="49.13473" lon="1.94793">
        <ele>79</ele>
        <time>2022-07-28T14:01:33Z</time>
      </trkpt>
      <trkpt lat="49.13479" lon="1.94785">
        <ele>79</ele>
        <time>2022-07-28T14:01:44Z</time>
      </trkpt>
      <trkpt lat="49.1348" lon="1.9479">
        <ele>79</ele>
        <time>2022-07-28T14:01:48Z</time>
      </trkpt>
      <trkpt lat="49.13473" lon="1.9479">
        <ele>79</ele>
        <time>2022-07-28T14:01:58Z</time>
      </trkpt>
      <trkpt lat="49.13476" lon="1.94792">
        <ele>79</ele>
        <time>2022-07-28T14:02:02Z</time>
      </trkpt>
      <trkpt lat="49.13485" lon="1.94784">
        <ele>79</ele>
        <time>2022-07-28T14:02:16Z</time>
      </trkpt>
      <trkpt lat="49.13482" lon="1.94794">
        <ele>79</ele>
        <time>2022-07-28T14:02:26Z</time>
      </trkpt>
      <trkpt lat="49.13485" lon="1.9479">
        <ele>79</ele>
        <time>2022-07-28T14:02:31Z</time>
      </trkpt>
      <trkpt lat="49.13491" lon="1.94788">
        <ele>79</ele>
        <time>2022-07-28T14:02:39Z</time>
      </trkpt>
      <trkpt lat="49.13512" lon="1.94773">
        <ele>79</ele>
        <time>2022-07-28T14:03:10Z</time>
      </trkpt>
      <trkpt lat="49.13526" lon="1.9477">
        <ele>79</ele>
        <time>2022-07-28T14:03:29Z</time>
      </trkpt>
      <trkpt lat="49.1355" lon="1.94753">
        <ele>79</ele>
        <time>2022-07-28T14:04:04Z</time>
      </trkpt>
      <trkpt lat="49.13561" lon="1.9475">
        <ele>79</ele>
        <time>2022-07-28T14:04:19Z</time>
      </trkpt>
      <trkpt lat="49.1357" lon="1.94744">
        <ele>79</ele>
        <time>2022-07-28T14:04:32Z</time>
      </trkpt>
      <trkpt lat="49.13577" lon="1.94734">
        <ele>78</ele>
        <time>2022-07-28T14:04:45Z</time>
      </trkpt>
      <trkpt lat="49.1359" lon="1.94723">
        <ele>78</ele>
        <time>2022-07-28T14:05:05Z</time>
      </trkpt>
      <trkpt lat="49.1362" lon="1.94709">
        <ele>80</ele>
        <time>2022-07-28T14:05:47Z</time>
      </trkpt>
      <trkpt lat="49.13623" lon="1.94699">
        <ele>79</ele>
        <time>2022-07-28T14:05:56Z</time>
      </trkpt>
      <trkpt lat="49.13632" lon="1.94684">
        <ele>78</ele>
        <time>2022-07-28T14:06:14Z</time>
      </trkpt>
      <trkpt lat="49.13661" lon="1.94663">
        <ele>78</ele>
        <time>2022-07-28T14:06:57Z</time>
      </trkpt>
      <trkpt lat="49.13687" lon="1.94635">
        <ele>79</ele>
        <time>2022-07-28T14:07:39Z</time>
      </trkpt>
      <trkpt lat="49.13705" lon="1.94622">
        <ele>80</ele>
        <time>2022-07-28T14:08:06Z</time>
      </trkpt>
      <trkpt lat="49.13725" lon="1.94597">
        <ele>80</ele>
        <time>2022-07-28T14:08:40Z</time>
      </trkpt>
      <trkpt lat="49.13747" lon="1.94536">
        <ele>78</ele>
        <time>2022-07-28T14:09:41Z</time>
      </trkpt>
      <trkpt lat="49.13772" lon="1.94498">
        <ele>78</ele>
        <time>2022-07-28T14:10:28Z</time>
      </trkpt>
      <trkpt lat="49.13773" lon="1.94493">
        <ele>78</ele>
        <time>2022-07-28T14:10:33Z</time>
      </trkpt>
      <trkpt lat="49.13773" lon="1.94396">
        <ele>70</ele>
        <time>2022-07-28T14:11:57Z</time>
      </trkpt>
      <trkpt lat="49.13769" lon="1.94371">
        <ele>68</ele>
        <time>2022-07-28T14:12:20Z</time>
      </trkpt>
      <trkpt lat="49.13757" lon="1.94329">
        <ele>63</ele>
        <time>2022-07-28T14:13:00Z</time>
      </trkpt>
      <trkpt lat="49.13762" lon="1.94333">
        <ele>64</ele>
        <time>2022-07-28T14:13:07Z</time>
      </trkpt>
      <trkpt lat="49.13761" lon="1.94338">
        <ele>64</ele>
        <time>2022-07-28T14:13:12Z</time>
      </trkpt>
      <trkpt lat="49.13762" lon="1.94332">
        <ele>64</ele>
        <time>2022-07-28T14:13:17Z</time>
      </trkpt>
      <trkpt lat="49.13766" lon="1.94336">
        <ele>65</ele>
        <time>2022-07-28T14:13:24Z</time>
      </trkpt>
      <trkpt lat="49.13765" lon="1.94339">
        <ele>65</ele>
        <time>2022-07-28T14:13:27Z</time>
      </trkpt>
      <trkpt lat="49.13768" lon="1.94337">
        <ele>65</ele>
        <time>2022-07-28T14:13:31Z</time>
      </trkpt>
      <trkpt lat="49.13778" lon="1.94327">
        <ele>65</ele>
        <time>2022-07-28T14:13:47Z</time>
      </trkpt>
      <trkpt lat="49.13793" lon="1.94303">
        <ele>65</ele>
        <time>2022-07-28T14:14:16Z</time>
      </trkpt>
      <trkpt lat="49.1382" lon="1.94284">
        <ele>66</ele>
        <time>2022-07-28T14:14:56Z</time>
      </trkpt>
      <trkpt lat="49.13824" lon="1.94277">
        <ele>66</ele>
        <time>2022-07-28T14:15:04Z</time>
      </trkpt>
      <trkpt lat="49.13824" lon="1.94266">
        <ele>65</ele>
        <time>2022-07-28T14:15:13Z</time>
      </trkpt>
      <trkpt lat="49.13819" lon="1.94239">
        <ele>64</ele>
        <time>2022-07-28T14:15:38Z</time>
      </trkpt>
      <trkpt lat="49.13827" lon="1.94228">
        <ele>64</ele>
        <time>2022-07-28T14:15:52Z</time>
      </trkpt>
      <trkpt lat="49.13843" lon="1.94195">
        <ele>65</ele>
        <time>2022-07-28T14:16:28Z</time>
      </trkpt>
      <trkpt lat="49.13851" lon="1.94166">
        <ele>64</ele>
        <time>2022-07-28T14:16:56Z</time>
      </trkpt>
      <trkpt lat="49.13873" lon="1.94134">
        <ele>65</ele>
        <time>2022-07-28T14:17:36Z</time>
      </trkpt>
      <trkpt lat="49.13902" lon="1.9407">
        <ele>64</ele>
        <time>2022-07-28T14:18:44Z</time>
      </trkpt>
      <trkpt lat="49.13919" lon="1.94041">
        <ele>64</ele>
        <time>2022-07-28T14:19:18Z</time>
      </trkpt>
      <trkpt lat="49.13958" lon="1.93999">
        <ele>66</ele>
        <time>2022-07-28T14:20:22Z</time>
      </trkpt>
      <trkpt lat="49.13984" lon="1.93987">
        <ele>67</ele>
        <time>2022-07-28T14:20:58Z</time>
      </trkpt>
      <trkpt lat="49.14018" lon="1.93984">
        <ele>68</ele>
        <time>2022-07-28T14:21:43Z</time>
      </trkpt>
      <trkpt lat="49.14038" lon="1.93979">
        <ele>68</ele>
        <time>2022-07-28T14:22:11Z</time>
      </trkpt>
      <trkpt lat="49.14069" lon="1.93987">
        <ele>70</ele>
        <time>2022-07-28T14:22:52Z</time>
      </trkpt>
      <trkpt lat="49.14089" lon="1.93982">
        <ele>70</ele>
        <time>2022-07-28T14:23:20Z</time>
      </trkpt>
      <trkpt lat="49.14122" lon="1.93985">
        <ele>71</ele>
        <time>2022-07-28T14:24:04Z</time>
      </trkpt>
      <trkpt lat="49.14149" lon="1.9398">
        <ele>71</ele>
        <time>2022-07-28T14:24:40Z</time>
      </trkpt>
      <trkpt lat="49.14177" lon="1.93982">
        <ele>71</ele>
        <time>2022-07-28T14:25:17Z</time>
      </trkpt>
      <trkpt lat="49.14196" lon="1.93986">
        <ele>72</ele>
        <time>2022-07-28T14:25:43Z</time>
      </trkpt>
      <trkpt lat="49.1423" lon="1.93986">
        <ele>72</ele>
        <time>2022-07-28T14:26:28Z</time>
      </trkpt>
      <trkpt lat="49.14253" lon="1.93997">
        <ele>74</ele>
        <time>2022-07-28T14:27:00Z</time>
      </trkpt>
      <trkpt lat="49.14295" lon="1.94011">
        <ele>76</ele>
        <time>2022-07-28T14:27:58Z</time>
      </trkpt>
      <trkpt lat="49.14317" lon="1.94013">
        <ele>76</ele>
        <time>2022-07-28T14:28:27Z</time>
      </trkpt>
      <trkpt lat="49.1437" lon="1.93994">
        <ele>74</ele>
        <time>2022-07-28T14:29:40Z</time>
      </trkpt>
      <trkpt lat="49.14394" lon="1.93979">
        <ele>73</ele>
        <time>2022-07-28T14:30:14Z</time>
      </trkpt>
      <trkpt lat="49.1443" lon="1.93964">
        <ele>70</ele>
        <time>2022-07-28T14:31:04Z</time>
      </trkpt>
      <trkpt lat="49.14442" lon="1.93953">
        <ele>68</ele>
        <time>2022-07-28T14:31:23Z</time>
      </trkpt>
      <trkpt lat="49.14466" lon="1.93948">
        <ele>67</ele>
        <time>2022-07-28T14:31:55Z</time>
      </trkpt>
      <trkpt lat="49.14496" lon="1.9395">
        <ele>67</ele>
        <time>2022-07-28T14:32:35Z</time>
      </trkpt>
      <trkpt lat="49.1453" lon="1.93974">
        <ele>66</ele>
        <time>2022-07-28T14:33:25Z</time>
      </trkpt>
      <trkpt lat="49.14536" lon="1.93982">
        <ele>66</ele>
        <time>2022-07-28T14:33:36Z</time>
      </trkpt>
      <trkpt lat="49.14544" lon="1.93985">
        <ele>66</ele>
        <time>2022-07-28T14:33:47Z</time>
      </trkpt>
      <trkpt lat="49.1457" lon="1.94014">
        <ele>65</ele>
        <time>2022-07-28T14:34:30Z</time>
      </trkpt>
      <trkpt lat="49.14577" lon="1.94015">
        <ele>64</ele>
        <time>2022-07-28T14:34:39Z</time>
      </trkpt>
      <trkpt lat="49.1459" lon="1.94008">
        <ele>65</ele>
        <time>2022-07-28T14:34:58Z</time>
      </trkpt>
      <trkpt lat="49.14613" lon="1.94001">
        <ele>67</ele>
        <time>2022-07-28T14:35:29Z</time>
      </trkpt>
      <trkpt lat="49.14618" lon="1.93994">
        <ele>67</ele>
        <time>2022-07-28T14:35:38Z</time>
      </trkpt>
      <trkpt lat="49.14622" lon="1.93982">
        <ele>66</ele>
        <time>2022-07-28T14:35:50Z</time>
      </trkpt>
      <trkpt lat="49.14637" lon="1.93961">
        <ele>66</ele>
        <time>2022-07-28T14:36:17Z</time>
      </trkpt>
      <trkpt lat="49.14643" lon="1.93975">
        <ele>67</ele>
        <time>2022-07-28T14:36:31Z</time>
      </trkpt>
      <trkpt lat="49.14637" lon="1.93989">
        <ele>68</ele>
        <time>2022-07-28T14:36:46Z</time>
      </trkpt>
      <trkpt lat="49.14636" lon="1.93999">
        <ele>69</ele>
        <time>2022-07-28T14:36:55Z</time>
      </trkpt>
      <trkpt lat="49.14637" lon="1.94012">
        <ele>69</ele>
        <time>2022-07-28T14:37:06Z</time>
      </trkpt>
      <trkpt lat="49.14641" lon="1.94004">
        <ele>70</ele>
        <time>2022-07-28T14:37:15Z</time>
      </trkpt>
      <trkpt lat="49.14641" lon="1.94006">
        <ele>70</ele>
        <time>2022-07-28T14:37:17Z</time>
      </trkpt>
      <trkpt lat="49.14639" lon="1.94001">
        <ele>69</ele>
        <time>2022-07-28T14:37:22Z</time>
      </trkpt>
      <trkpt lat="49.14641" lon="1.94005">
        <ele>70</ele>
        <time>2022-07-28T14:37:26Z</time>
      </trkpt>
      <trkpt lat="49.14642" lon="1.93999">
        <ele>70</ele>
        <time>2022-07-28T14:37:32Z</time>
      </trkpt>
      <trkpt lat="49.14638" lon="1.93996">
        <ele>69</ele>
        <time>2022-07-28T14:37:38Z</time>
      </trkpt>
      <trkpt lat="49.14639" lon="1.93986">
        <ele>68</ele>
        <time>2022-07-28T14:37:47Z</time>
      </trkpt>
      <trkpt lat="49.14639" lon="1.93994">
        <ele>69</ele>
        <time>2022-07-28T14:37:54Z</time>
      </trkpt>
      <trkpt lat="49.14642" lon="1.93993">
        <ele>69</ele>
        <time>2022-07-28T14:37:58Z</time>
      </trkpt>
      <trkpt lat="49.14639" lon="1.93984">
        <ele>68</ele>
        <time>2022-07-28T14:38:06Z</time>
      </trkpt>
      <trkpt lat="49.14641" lon="1.93985">
        <ele>68</ele>
        <time>2022-07-28T14:38:09Z</time>
      </trkpt>
      <trkpt lat="49.14636" lon="1.94028">
        <ele>70</ele>
        <time>2022-07-28T14:38:47Z</time>
      </trkpt>
      <trkpt lat="49.14642" lon="1.94063">
        <ele>72</ele>
        <time>2022-07-28T14:39:19Z</time>
      </trkpt>
      <trkpt lat="49.14641" lon="1.9409">
        <ele>72</ele>
        <time>2022-07-28T14:39:43Z</time>
      </trkpt>
      <trkpt lat="49.14644" lon="1.94121">
        <ele>74</ele>
        <time>2022-07-28T14:40:10Z</time>
      </trkpt>
      <trkpt lat="49.14643" lon="1.94172">
        <ele>75</ele>
        <time>2022-07-28T14:40:55Z</time>
      </trkpt>
      <trkpt lat="49.14638" lon="1.94212">
        <ele>75</ele>
        <time>2022-07-28T14:41:30Z</time>
      </trkpt>
      <trkpt lat="49.14643" lon="1.94235">
        <ele>77</ele>
        <time>2022-07-28T14:41:51Z</time>
      </trkpt>
      <trkpt lat="49.14684" lon="1.94282">
        <ele>84</ele>
        <time>2022-07-28T14:43:00Z</time>
      </trkpt>
      <trkpt lat="49.14712" lon="1.94324">
        <ele>86</ele>
        <time>2022-07-28T14:43:52Z</time>
      </trkpt>
      <trkpt lat="49.14724" lon="1.94335">
        <ele>86</ele>
        <time>2022-07-28T14:44:11Z</time>
      </trkpt>
      <trkpt lat="49.14732" lon="1.94347">
        <ele>87</ele>
        <time>2022-07-28T14:44:26Z</time>
      </trkpt>
      <trkpt lat="49.14738" lon="1.9435">
        <ele>88</ele>
        <time>2022-07-28T14:44:34Z</time>
      </trkpt>
      <trkpt lat="49.14742" lon="1.94357">
        <ele>88</ele>
        <time>2022-07-28T14:44:42Z</time>
      </trkpt>
      <trkpt lat="49.14757" lon="1.94369">
        <ele>89</ele>
        <time>2022-07-28T14:45:05Z</time>
      </trkpt>
      <trkpt lat="49.14774" lon="1.94393">
        <ele>89</ele>
        <time>2022-07-28T14:45:36Z</time>
      </trkpt>
      <trkpt lat="49.14784" lon="1.94409">
        <ele>89</ele>
        <time>2022-07-28T14:45:55Z</time>
      </trkpt>
      <trkpt lat="49.14799" lon="1.94444">
        <ele>89</ele>
        <time>2022-07-28T14:46:31Z</time>
      </trkpt>
      <trkpt lat="49.1481" lon="1.94458">
        <ele>89</ele>
        <time>2022-07-28T14:46:51Z</time>
      </trkpt>
      <trkpt lat="49.14818" lon="1.94474">
        <ele>90</ele>
        <time>2022-07-28T14:47:08Z</time>
      </trkpt>
      <trkpt lat="49.14839" lon="1.94528">
        <ele>92</ele>
        <time>2022-07-28T14:48:03Z</time>
      </trkpt>
      <trkpt lat="49.14858" lon="1.94568">
        <ele>93</ele>
        <time>2022-07-28T14:48:46Z</time>
      </trkpt>
      <trkpt lat="49.14872" lon="1.94581">
        <ele>93</ele>
        <time>2022-07-28T14:49:08Z</time>
      </trkpt>
      <trkpt lat="49.1489" lon="1.94604">
        <ele>93</ele>
        <time>2022-07-28T14:49:39Z</time>
      </trkpt>
      <trkpt lat="49.14926" lon="1.94635">
        <ele>91</ele>
        <time>2022-07-28T14:50:34Z</time>
      </trkpt>
      <trkpt lat="49.14956" lon="1.94654">
        <ele>91</ele>
        <time>2022-07-28T14:51:18Z</time>
      </trkpt>
      <trkpt lat="49.14976" lon="1.94679">
        <ele>90</ele>
        <time>2022-07-28T14:51:52Z</time>
      </trkpt>
      <trkpt lat="49.14975" lon="1.9467">
        <ele>90</ele>
        <time>2022-07-28T14:52:00Z</time>
      </trkpt>
      <trkpt lat="49.14988" lon="1.94646">
        <ele>90</ele>
        <time>2022-07-28T14:52:27Z</time>
      </trkpt>
      <trkpt lat="49.14999" lon="1.94604">
        <ele>89</ele>
        <time>2022-07-28T14:53:07Z</time>
      </trkpt>
      <trkpt lat="49.15025" lon="1.94532">
        <ele>89</ele>
        <time>2022-07-28T14:54:19Z</time>
      </trkpt>
      <trkpt lat="49.15053" lon="1.94479">
        <ele>89</ele>
        <time>2022-07-28T14:55:18Z</time>
      </trkpt>
      <trkpt lat="49.15086" lon="1.94407">
        <ele>86</ele>
        <time>2022-07-28T14:56:35Z</time>
      </trkpt>
      <trkpt lat="49.15087" lon="1.94403">
        <ele>86</ele>
        <time>2022-07-28T14:56:39Z</time>
      </trkpt>
      <trkpt lat="49.15085" lon="1.94403">
        <ele>86</ele>
        <time>2022-07-28T14:56:41Z</time>
      </trkpt>
      <trkpt lat="49.151" lon="1.94376">
        <ele>83</ele>
        <time>2022-07-28T14:57:12Z</time>
      </trkpt>
      <trkpt lat="49.15098" lon="1.94377">
        <ele>83</ele>
        <time>2022-07-28T14:57:15Z</time>
      </trkpt>
      <trkpt lat="49.15085" lon="1.94399">
        <ele>85</ele>
        <time>2022-07-28T14:57:41Z</time>
      </trkpt>
      <trkpt lat="49.15083" lon="1.94404">
        <ele>86</ele>
        <time>2022-07-28T14:57:46Z</time>
      </trkpt>
      <trkpt lat="49.15085" lon="1.94406">
        <ele>86</ele>
        <time>2022-07-28T14:57:49Z</time>
      </trkpt>
      <trkpt lat="49.1509" lon="1.94394">
        <ele>85</ele>
        <time>2022-07-28T14:58:02Z</time>
      </trkpt>
      <trkpt lat="49.15105" lon="1.94373">
        <ele>83</ele>
        <time>2022-07-28T14:58:29Z</time>
      </trkpt>
      <trkpt lat="49.15126" lon="1.94356">
        <ele>80</ele>
        <time>2022-07-28T14:59:00Z</time>
      </trkpt>
      <trkpt lat="49.15172" lon="1.94339">
        <ele>77</ele>
        <time>2022-07-28T15:00:04Z</time>
      </trkpt>
      <trkpt lat="49.15188" lon="1.94326">
        <ele>75</ele>
        <time>2022-07-28T15:00:28Z</time>
      </trkpt>
      <trkpt lat="49.15215" lon="1.94319">
        <ele>74</ele>
        <time>2022-07-28T15:01:04Z</time>
      </trkpt>
      <trkpt lat="49.15228" lon="1.94311">
        <ele>73</ele>
        <time>2022-07-28T15:01:23Z</time>
      </trkpt>
      <trkpt lat="49.15233" lon="1.94312">
        <ele>73</ele>
        <time>2022-07-28T15:01:30Z</time>
      </trkpt>
      <trkpt lat="49.15255" lon="1.94304">
        <ele>72</ele>
        <time>2022-07-28T15:02:00Z</time>
      </trkpt>
      <trkpt lat="49.15276" lon="1.94307">
        <ele>70</ele>
        <time>2022-07-28T15:02:28Z</time>
      </trkpt>
      <trkpt lat="49.15285" lon="1.94303">
        <ele>69</ele>
        <time>2022-07-28T15:02:41Z</time>
      </trkpt>
      <trkpt lat="49.15298" lon="1.94306">
        <ele>69</ele>
        <time>2022-07-28T15:02:58Z</time>
      </trkpt>
      <trkpt lat="49.15313" lon="1.94306">
        <ele>67</ele>
        <time>2022-07-28T15:03:18Z</time>
      </trkpt>
      <trkpt lat="49.15329" lon="1.943">
        <ele>66</ele>
        <time>2022-07-28T15:03:40Z</time>
      </trkpt>
      <trkpt lat="49.15337" lon="1.94303">
        <ele>66</ele>
        <time>2022-07-28T15:03:51Z</time>
      </trkpt>
      <trkpt lat="49.15368" lon="1.94303">
        <ele>70</ele>
        <time>2022-07-28T15:04:32Z</time>
      </trkpt>
      <trkpt lat="49.15374" lon="1.94294">
        <ele>70</ele>
        <time>2022-07-28T15:04:44Z</time>
      </trkpt>
      <trkpt lat="49.15377" lon="1.94281">
        <ele>71</ele>
        <time>2022-07-28T15:04:56Z</time>
      </trkpt>
      <trkpt lat="49.15375" lon="1.94237">
        <ele>69</ele>
        <time>2022-07-28T15:05:34Z</time>
      </trkpt>
      <trkpt lat="49.15372" lon="1.9424">
        <ele>69</ele>
        <time>2022-07-28T15:05:39Z</time>
      </trkpt>
      <trkpt lat="49.1537" lon="1.94254">
        <ele>69</ele>
        <time>2022-07-28T15:05:52Z</time>
      </trkpt>
      <trkpt lat="49.15371" lon="1.94259">
        <ele>69</ele>
        <time>2022-07-28T15:05:56Z</time>
      </trkpt>
      <trkpt lat="49.15375" lon="1.94262">
        <ele>70</ele>
        <time>2022-07-28T15:06:02Z</time>
      </trkpt>
      <trkpt lat="49.15379" lon="1.94251">
        <ele>70</ele>
        <time>2022-07-28T15:06:13Z</time>
      </trkpt>
      <trkpt lat="49.15398" lon="1.94224">
        <ele>72</ele>
        <time>2022-07-28T15:06:48Z</time>
      </trkpt>
      <trkpt lat="49.15405" lon="1.94218">
        <ele>72</ele>
        <time>2022-07-28T15:06:58Z</time>
      </trkpt>
      <trkpt lat="49.1543" lon="1.94176">
        <ele>73</ele>
        <time>2022-07-28T15:07:48Z</time>
      </trkpt>
      <trkpt lat="49.1548" lon="1.94111">
        <ele>76</ele>
        <time>2022-07-28T15:09:15Z</time>
      </trkpt>
      <trkpt lat="49.15494" lon="1.94101">
        <ele>78</ele>
        <time>2022-07-28T15:09:36Z</time>
      </trkpt>
      <trkpt lat="49.15508" lon="1.94087">
        <ele>78</ele>
        <time>2022-07-28T15:09:58Z</time>
      </trkpt>
      <trkpt lat="49.15515" lon="1.94075">
        <ele>78</ele>
        <time>2022-07-28T15:10:12Z</time>
      </trkpt>
      <trkpt lat="49.15513" lon="1.94081">
        <ele>78</ele>
        <time>2022-07-28T15:10:18Z</time>
      </trkpt>
      <trkpt lat="49.15524" lon="1.94069">
        <ele>79</ele>
        <time>2022-07-28T15:10:36Z</time>
      </trkpt>
      <trkpt lat="49.15544" lon="1.94054">
        <ele>80</ele>
        <time>2022-07-28T15:11:06Z</time>
      </trkpt>
      <trkpt lat="49.15572" lon="1.94036">
        <ele>83</ele>
        <time>2022-07-28T15:11:47Z</time>
      </trkpt>
      <trkpt lat="49.15585" lon="1.94033">
        <ele>85</ele>
        <time>2022-07-28T15:12:04Z</time>
      </trkpt>
      <trkpt lat="49.15594" lon="1.94034">
        <ele>85</ele>
        <time>2022-07-28T15:12:16Z</time>
      </trkpt>
      <trkpt lat="49.15613" lon="1.94024">
        <ele>85</ele>
        <time>2022-07-28T15:12:43Z</time>
      </trkpt>
      <trkpt lat="49.15646" lon="1.93992">
        <ele>85</ele>
        <time>2022-07-28T15:13:35Z</time>
      </trkpt>
      <trkpt lat="49.15659" lon="1.93984">
        <ele>86</ele>
        <time>2022-07-28T15:13:54Z</time>
      </trkpt>
      <trkpt lat="49.15664" lon="1.93977">
        <ele>85</ele>
        <time>2022-07-28T15:14:03Z</time>
      </trkpt>
      <trkpt lat="49.15664" lon="1.93963">
        <ele>85</ele>
        <time>2022-07-28T15:14:15Z</time>
      </trkpt>
      <trkpt lat="49.1566" lon="1.93953">
        <ele>84</ele>
        <time>2022-07-28T15:14:25Z</time>
      </trkpt>
      <trkpt lat="49.15652" lon="1.93943">
        <ele>82</ele>
        <time>2022-07-28T15:14:39Z</time>
      </trkpt>
      <trkpt lat="49.1565" lon="1.93932">
        <ele>81</ele>
        <time>2022-07-28T15:14:49Z</time>
      </trkpt>
      <trkpt lat="49.15653" lon="1.93919">
        <ele>81</ele>
        <time>2022-07-28T15:15:01Z</time>
      </trkpt>
      <trkpt lat="49.15664" lon="1.93907">
        <ele>80</ele>
        <time>2022-07-28T15:15:19Z</time>
      </trkpt>
      <trkpt lat="49.1567" lon="1.93888">
        <ele>78</ele>
        <time>2022-07-28T15:15:38Z</time>
      </trkpt>
      <trkpt lat="49.15691" lon="1.93871">
        <ele>77</ele>
        <time>2022-07-28T15:16:09Z</time>
      </trkpt>
      <trkpt lat="49.15723" lon="1.93834">
        <ele>73</ele>
        <time>2022-07-28T15:17:03Z</time>
      </trkpt>
      <trkpt lat="49.15729" lon="1.93829">
        <ele>73</ele>
        <time>2022-07-28T15:17:12Z</time>
      </trkpt>
      <trkpt lat="49.15744" lon="1.93825">
        <ele>73</ele>
        <time>2022-07-28T15:17:32Z</time>
      </trkpt>
      <trkpt lat="49.15763" lon="1.93827">
        <ele>72</ele>
        <time>2022-07-28T15:17:58Z</time>
      </trkpt>
      <trkpt lat="49.15771" lon="1.93824">
        <ele>72</ele>
        <time>2022-07-28T15:18:09Z</time>
      </trkpt>
      <trkpt lat="49.15793" lon="1.93823">
        <ele>70</ele>
        <time>2022-07-28T15:18:38Z</time>
      </trkpt>
      <trkpt lat="49.15792" lon="1.93817">
        <ele>70</ele>
        <time>2022-07-28T15:18:43Z</time>
      </trkpt>
      <trkpt lat="49.15796" lon="1.93815">
        <ele>69</ele>
        <time>2022-07-28T15:18:49Z</time>
      </trkpt>
      <trkpt lat="49.15795" lon="1.93813">
        <ele>69</ele>
        <time>2022-07-28T15:18:51Z</time>
      </trkpt>
      <trkpt lat="49.15818" lon="1.93814">
        <ele>68</ele>
        <time>2022-07-28T15:19:22Z</time>
      </trkpt>
      <trkpt lat="49.15827" lon="1.93812">
        <ele>68</ele>
        <time>2022-07-28T15:19:34Z</time>
      </trkpt>
      <trkpt lat="49.15833" lon="1.93803">
        <ele>67</ele>
        <time>2022-07-28T15:19:45Z</time>
      </trkpt>
      <trkpt lat="49.1584" lon="1.93784">
        <ele>66</ele>
        <time>2022-07-28T15:20:04Z</time>
      </trkpt>
      <trkpt lat="49.15874" lon="1.93742">
        <ele>64</ele>
        <time>2022-07-28T15:21:03Z</time>
      </trkpt>
      <trkpt lat="49.15882" lon="1.93723">
        <ele>64</ele>
        <time>2022-07-28T15:21:22Z</time>
      </trkpt>
      <trkpt lat="49.15914" lon="1.93683">
        <ele>63</ele>
        <time>2022-07-28T15:22:18Z</time>
      </trkpt>
      <trkpt lat="49.1594" lon="1.93698">
        <ele>64</ele>
        <time>2022-07-28T15:22:55Z</time>
      </trkpt>
      <trkpt lat="49.15971" lon="1.93704">
        <ele>64</ele>
        <time>2022-07-28T15:23:36Z</time>
      </trkpt>
      <trkpt lat="49.15997" lon="1.93723">
        <ele>65</ele>
        <time>2022-07-28T15:24:15Z</time>
      </trkpt>
      <trkpt lat="49.16008" lon="1.93723">
        <ele>65</ele>
        <time>2022-07-28T15:24:29Z</time>
      </trkpt>
      <trkpt lat="49.16015" lon="1.93715">
        <ele>64</ele>
        <time>2022-07-28T15:24:41Z</time>
      </trkpt>
      <trkpt lat="49.16008" lon="1.9371">
        <ele>64</ele>
        <time>2022-07-28T15:24:51Z</time>
      </trkpt>
      <trkpt lat="49.1601" lon="1.93718">
        <ele>65</ele>
        <time>2022-07-28T15:24:59Z</time>
      </trkpt>
      <trkpt lat="49.16018" lon="1.93705">
        <ele>64</ele>
        <time>2022-07-28T15:25:15Z</time>
      </trkpt>
      <trkpt lat="49.16023" lon="1.93683">
        <ele>64</ele>
        <time>2022-07-28T15:25:35Z</time>
      </trkpt>
      <trkpt lat="49.16022" lon="1.93614">
        <ele>65</ele>
        <time>2022-07-28T15:26:35Z</time>
      </trkpt>
      <trkpt lat="49.16024" lon="1.93602">
        <ele>65</ele>
        <time>2022-07-28T15:26:46Z</time>
      </trkpt>
      <trkpt lat="49.16034" lon="1.93581">
        <ele>66</ele>
        <time>2022-07-28T15:27:09Z</time>
      </trkpt>
      <trkpt lat="49.16035" lon="1.9357">
        <ele>67</ele>
        <time>2022-07-28T15:27:18Z</time>
      </trkpt>
      <trkpt lat="49.16034" lon="1.93573">
        <ele>67</ele>
        <time>2022-07-28T15:27:21Z</time>
      </trkpt>
      <trkpt lat="49.1603" lon="1.93574">
        <ele>66</ele>
        <time>2022-07-28T15:27:27Z</time>
      </trkpt>
      <trkpt lat="49.16031" lon="1.93582">
        <ele>66</ele>
        <time>2022-07-28T15:27:34Z</time>
      </trkpt>
      <trkpt lat="49.16038" lon="1.93587">
        <ele>66</ele>
        <time>2022-07-28T15:27:44Z</time>
      </trkpt>
      <trkpt lat="49.16046" lon="1.93587">
        <ele>67</ele>
        <time>2022-07-28T15:27:55Z</time>
      </trkpt>
      <trkpt lat="49.16163" lon="1.93664">
        <ele>65</ele>
        <time>2022-07-28T15:30:45Z</time>
      </trkpt>
      <trkpt lat="49.16173" lon="1.93665">
        <ele>65</ele>
        <time>2022-07-28T15:30:58Z</time>
      </trkpt>
      <trkpt lat="49.1618" lon="1.93663">
        <ele>65</ele>
        <time>2022-07-28T15:31:08Z</time>
      </trkpt>
      <trkpt lat="49.16192" lon="1.93665">
        <ele>65</ele>
        <time>2022-07-28T15:31:24Z</time>
      </trkpt>
      <trkpt lat="49.16205" lon="1.93661">
        <ele>65</ele>
        <time>2022-07-28T15:31:41Z</time>
      </trkpt>
    </trkseg>
  </trk>
</gpx>